<?xml version="1.0" encoding="UTF-8" standalone="yes"?>
<gpx
 xmlns="http://www.topografix.com/GPX/1/1"
 creator="OziExplorer Version 3956f - http://www.oziexplorer.com"
 version="1.1"
 xmlns:xsi="http://www.w3.org/2001/XMLSchema-instance"
 xsi:schemaLocation="http://www.topografix.com/GPX/1/1 http://www.topografix.com/GPX/1/1/gpx.xsd">
<metadata>
 <time>2020-09-09T03:57:18Z</time>
 <bounds minlat="31.618040" minlon="34.882650" maxlat="31.681840" maxlon="34.930610"/>
</metadata>
<trk>
 <name>Britaniya-Meshua-Luzit_28km.552m_</name>
 <desc>Britaniya-Meshua-Luzit_28km.552m_</desc>
<trkseg>
<trkpt lat="31.6775800" lon="34.9304200">
<ele>317.000000</ele>
<time>2020-09-06T00:00:00.000Z</time>
</trkpt>
<trkpt lat="31.6776000" lon="34.9304200">
<ele>317.000000</ele>
<time>2020-09-06T00:00:03.000Z</time>
</trkpt>
<trkpt lat="31.6776100" lon="34.9302400">
<ele>318.000000</ele>
<time>2020-09-06T00:00:24.000Z</time>
</trkpt>
<trkpt lat="31.6776100" lon="34.9301700">
<ele>319.000000</ele>
<time>2020-09-06T00:00:32.000Z</time>
</trkpt>
<trkpt lat="31.6775700" lon="34.9298500">
<ele>321.000031</ele>
<time>2020-09-06T00:01:09.000Z</time>
</trkpt>
<trkpt lat="31.6776600" lon="34.9289600">
<ele>331.000000</ele>
<time>2020-09-06T00:02:57.000Z</time>
</trkpt>
<trkpt lat="31.6776200" lon="34.9282200">
<ele>335.000031</ele>
<time>2020-09-06T00:04:08.000Z</time>
</trkpt>
<trkpt lat="31.6776200" lon="34.9278900">
<ele>333.000000</ele>
<time>2020-09-06T00:04:29.000Z</time>
</trkpt>
<trkpt lat="31.6776700" lon="34.9275600">
<ele>332.000000</ele>
<time>2020-09-06T00:04:51.000Z</time>
</trkpt>
<trkpt lat="31.6777200" lon="34.9273000">
<ele>329.000000</ele>
<time>2020-09-06T00:05:08.000Z</time>
</trkpt>
<trkpt lat="31.6770900" lon="34.9273900">
<ele>332.000000</ele>
<time>2020-09-06T00:06:00.000Z</time>
</trkpt>
<trkpt lat="31.6768600" lon="34.9273300">
<ele>332.000000</ele>
<time>2020-09-06T00:06:24.000Z</time>
</trkpt>
<trkpt lat="31.6766200" lon="34.9272000">
<ele>333.000000</ele>
<time>2020-09-06T00:06:51.000Z</time>
</trkpt>
<trkpt lat="31.6762500" lon="34.9270300">
<ele>335.000031</ele>
<time>2020-09-06T00:07:36.000Z</time>
</trkpt>
<trkpt lat="31.6762200" lon="34.9271700">
<ele>337.000000</ele>
<time>2020-09-06T00:07:52.000Z</time>
</trkpt>
<trkpt lat="31.6762400" lon="34.9272700">
<ele>337.999969</ele>
<time>2020-09-06T00:08:03.000Z</time>
</trkpt>
<trkpt lat="31.6762400" lon="34.9275100">
<ele>341.000000</ele>
<time>2020-09-06T00:08:30.000Z</time>
</trkpt>
<trkpt lat="31.6761500" lon="34.9277500">
<ele>341.000000</ele>
<time>2020-09-06T00:08:58.000Z</time>
</trkpt>
<trkpt lat="31.6760000" lon="34.9278000">
<ele>342.000000</ele>
<time>2020-09-06T00:09:14.000Z</time>
</trkpt>
<trkpt lat="31.6755800" lon="34.9279100">
<ele>344.000000</ele>
<time>2020-09-06T00:09:58.000Z</time>
</trkpt>
<trkpt lat="31.6754300" lon="34.9279600">
<ele>344.000000</ele>
<time>2020-09-06T00:10:13.000Z</time>
</trkpt>
<trkpt lat="31.6750400" lon="34.9280800">
<ele>345.000000</ele>
<time>2020-09-06T00:10:59.000Z</time>
</trkpt>
<trkpt lat="31.6748400" lon="34.9280100">
<ele>347.000000</ele>
<time>2020-09-06T00:11:23.000Z</time>
</trkpt>
<trkpt lat="31.6746200" lon="34.9281300">
<ele>349.000031</ele>
<time>2020-09-06T00:11:51.000Z</time>
</trkpt>
<trkpt lat="31.6743600" lon="34.9282200">
<ele>351.000000</ele>
<time>2020-09-06T00:12:24.000Z</time>
</trkpt>
<trkpt lat="31.6741500" lon="34.9281800">
<ele>353.000000</ele>
<time>2020-09-06T00:12:51.000Z</time>
</trkpt>
<trkpt lat="31.6739200" lon="34.9277700">
<ele>356.000000</ele>
<time>2020-09-06T00:13:41.000Z</time>
</trkpt>
<trkpt lat="31.6739000" lon="34.9276100">
<ele>357.000000</ele>
<time>2020-09-06T00:13:57.000Z</time>
</trkpt>
<trkpt lat="31.6738600" lon="34.9273600">
<ele>358.000000</ele>
<time>2020-09-06T00:14:22.000Z</time>
</trkpt>
<trkpt lat="31.6737500" lon="34.9272300">
<ele>358.000000</ele>
<time>2020-09-06T00:14:40.000Z</time>
</trkpt>
<trkpt lat="31.6737100" lon="34.9271900">
<ele>359.000000</ele>
<time>2020-09-06T00:14:46.000Z</time>
</trkpt>
<trkpt lat="31.6736800" lon="34.9271500">
<ele>359.000000</ele>
<time>2020-09-06T00:14:51.000Z</time>
</trkpt>
<trkpt lat="31.6736100" lon="34.9270900">
<ele>360.000031</ele>
<time>2020-09-06T00:15:01.000Z</time>
</trkpt>
<trkpt lat="31.6735600" lon="34.9270300">
<ele>360.000031</ele>
<time>2020-09-06T00:15:08.000Z</time>
</trkpt>
<trkpt lat="31.6732500" lon="34.9267100">
<ele>362.999969</ele>
<time>2020-09-06T00:15:40.000Z</time>
</trkpt>
<trkpt lat="31.6729200" lon="34.9263200">
<ele>358.000000</ele>
<time>2020-09-06T00:16:16.000Z</time>
</trkpt>
<trkpt lat="31.6728600" lon="34.9262100">
<ele>357.000000</ele>
<time>2020-09-06T00:16:24.000Z</time>
</trkpt>
<trkpt lat="31.6727900" lon="34.9260100">
<ele>355.000000</ele>
<time>2020-09-06T00:16:37.000Z</time>
</trkpt>
<trkpt lat="31.6727200" lon="34.9259200">
<ele>355.000000</ele>
<time>2020-09-06T00:16:45.000Z</time>
</trkpt>
<trkpt lat="31.6726500" lon="34.9258900">
<ele>355.000000</ele>
<time>2020-09-06T00:16:50.000Z</time>
</trkpt>
<trkpt lat="31.6726200" lon="34.9258900">
<ele>355.000000</ele>
<time>2020-09-06T00:16:52.000Z</time>
</trkpt>
<trkpt lat="31.6725600" lon="34.9259500">
<ele>355.000000</ele>
<time>2020-09-06T00:16:58.000Z</time>
</trkpt>
<trkpt lat="31.6724500" lon="34.9261700">
<ele>356.000000</ele>
<time>2020-09-06T00:17:13.000Z</time>
</trkpt>
<trkpt lat="31.6723300" lon="34.9263300">
<ele>354.000000</ele>
<time>2020-09-06T00:17:24.000Z</time>
</trkpt>
<trkpt lat="31.6722500" lon="34.9264800">
<ele>353.000000</ele>
<time>2020-09-06T00:17:34.000Z</time>
</trkpt>
<trkpt lat="31.6721900" lon="34.9265700">
<ele>353.000000</ele>
<time>2020-09-06T00:17:40.000Z</time>
</trkpt>
<trkpt lat="31.6720800" lon="34.9266900">
<ele>351.000000</ele>
<time>2020-09-06T00:17:50.000Z</time>
</trkpt>
<trkpt lat="31.6718900" lon="34.9268000">
<ele>348.000000</ele>
<time>2020-09-06T00:18:07.000Z</time>
</trkpt>
<trkpt lat="31.6718100" lon="34.9268100">
<ele>346.000031</ele>
<time>2020-09-06T00:18:16.000Z</time>
</trkpt>
<trkpt lat="31.6717000" lon="34.9266200">
<ele>342.000000</ele>
<time>2020-09-06T00:18:36.000Z</time>
</trkpt>
<trkpt lat="31.6715700" lon="34.9265900">
<ele>341.000000</ele>
<time>2020-09-06T00:18:51.000Z</time>
</trkpt>
<trkpt lat="31.6713100" lon="34.9264900">
<ele>337.999969</ele>
<time>2020-09-06T00:19:20.000Z</time>
</trkpt>
<trkpt lat="31.6711200" lon="34.9261900">
<ele>333.000000</ele>
<time>2020-09-06T00:19:55.000Z</time>
</trkpt>
<trkpt lat="31.6708900" lon="34.9260100">
<ele>328.000000</ele>
<time>2020-09-06T00:20:26.000Z</time>
</trkpt>
<trkpt lat="31.6700400" lon="34.9258400">
<ele>320.000000</ele>
<time>2020-09-06T00:21:39.000Z</time>
</trkpt>
<trkpt lat="31.6693200" lon="34.9260000">
<ele>323.999969</ele>
<time>2020-09-06T00:22:43.000Z</time>
</trkpt>
<trkpt lat="31.6690300" lon="34.9262300">
<ele>323.999969</ele>
<time>2020-09-06T00:23:16.000Z</time>
</trkpt>
<trkpt lat="31.6690400" lon="34.9260700">
<ele>325.000000</ele>
<time>2020-09-06T00:23:28.000Z</time>
</trkpt>
<trkpt lat="31.6687200" lon="34.9238500">
<ele>334.000000</ele>
<time>2020-09-06T00:26:54.000Z</time>
</trkpt>
<trkpt lat="31.6686500" lon="34.9232600">
<ele>337.000000</ele>
<time>2020-09-06T00:27:56.000Z</time>
</trkpt>
<trkpt lat="31.6686400" lon="34.9220300">
<ele>340.000000</ele>
<time>2020-09-06T00:29:41.000Z</time>
</trkpt>
<trkpt lat="31.6686300" lon="34.9218600">
<ele>340.000000</ele>
<time>2020-09-06T00:29:53.000Z</time>
</trkpt>
<trkpt lat="31.6685900" lon="34.9216900">
<ele>341.000000</ele>
<time>2020-09-06T00:30:05.000Z</time>
</trkpt>
<trkpt lat="31.6685700" lon="34.9216200">
<ele>341.000000</ele>
<time>2020-09-06T00:30:10.000Z</time>
</trkpt>
<trkpt lat="31.6685300" lon="34.9215400">
<ele>341.000000</ele>
<time>2020-09-06T00:30:16.000Z</time>
</trkpt>
<trkpt lat="31.6684500" lon="34.9214000">
<ele>341.000000</ele>
<time>2020-09-06T00:30:27.000Z</time>
</trkpt>
<trkpt lat="31.6682900" lon="34.9211700">
<ele>342.000000</ele>
<time>2020-09-06T00:30:46.000Z</time>
</trkpt>
<trkpt lat="31.6681900" lon="34.9210500">
<ele>340.000000</ele>
<time>2020-09-06T00:30:57.000Z</time>
</trkpt>
<trkpt lat="31.6680600" lon="34.9209800">
<ele>339.000000</ele>
<time>2020-09-06T00:31:07.000Z</time>
</trkpt>
<trkpt lat="31.6679800" lon="34.9209600">
<ele>339.000000</ele>
<time>2020-09-06T00:31:17.000Z</time>
</trkpt>
<trkpt lat="31.6677700" lon="34.9214700">
<ele>348.000000</ele>
<time>2020-09-06T00:32:43.000Z</time>
</trkpt>
<trkpt lat="31.6675100" lon="34.9218300">
<ele>355.000000</ele>
<time>2020-09-06T00:33:50.000Z</time>
</trkpt>
<trkpt lat="31.6673200" lon="34.9219900">
<ele>358.000000</ele>
<time>2020-09-06T00:34:20.000Z</time>
</trkpt>
<trkpt lat="31.6671900" lon="34.9220700">
<ele>360.000031</ele>
<time>2020-09-06T00:34:39.000Z</time>
</trkpt>
<trkpt lat="31.6669900" lon="34.9220900">
<ele>361.000000</ele>
<time>2020-09-06T00:35:05.000Z</time>
</trkpt>
<trkpt lat="31.6666500" lon="34.9219500">
<ele>360.000031</ele>
<time>2020-09-06T00:35:47.000Z</time>
</trkpt>
<trkpt lat="31.6666800" lon="34.9220700">
<ele>361.000000</ele>
<time>2020-09-06T00:35:58.000Z</time>
</trkpt>
<trkpt lat="31.6667400" lon="34.9222000">
<ele>362.999969</ele>
<time>2020-09-06T00:36:12.000Z</time>
</trkpt>
<trkpt lat="31.6668300" lon="34.9222600">
<ele>362.999969</ele>
<time>2020-09-06T00:36:23.000Z</time>
</trkpt>
<trkpt lat="31.6670800" lon="34.9223700">
<ele>365.000000</ele>
<time>2020-09-06T00:36:51.000Z</time>
</trkpt>
<trkpt lat="31.6673900" lon="34.9224200">
<ele>365.000000</ele>
<time>2020-09-06T00:37:14.000Z</time>
</trkpt>
<trkpt lat="31.6676000" lon="34.9223600">
<ele>362.000000</ele>
<time>2020-09-06T00:37:30.000Z</time>
</trkpt>
<trkpt lat="31.6677000" lon="34.9224200">
<ele>362.000000</ele>
<time>2020-09-06T00:37:39.000Z</time>
</trkpt>
<trkpt lat="31.6677200" lon="34.9225500">
<ele>362.000000</ele>
<time>2020-09-06T00:37:47.000Z</time>
</trkpt>
<trkpt lat="31.6676600" lon="34.9227200">
<ele>362.000000</ele>
<time>2020-09-06T00:38:02.000Z</time>
</trkpt>
<trkpt lat="31.6674500" lon="34.9228900">
<ele>365.000000</ele>
<time>2020-09-06T00:38:26.000Z</time>
</trkpt>
<trkpt lat="31.6674000" lon="34.9229100">
<ele>364.000000</ele>
<time>2020-09-06T00:38:31.000Z</time>
</trkpt>
<trkpt lat="31.6672400" lon="34.9229400">
<ele>364.000000</ele>
<time>2020-09-06T00:38:46.000Z</time>
</trkpt>
<trkpt lat="31.6671300" lon="34.9229100">
<ele>364.000000</ele>
<time>2020-09-06T00:38:57.000Z</time>
</trkpt>
<trkpt lat="31.6670800" lon="34.9229000">
<ele>364.000000</ele>
<time>2020-09-06T00:39:02.000Z</time>
</trkpt>
<trkpt lat="31.6668300" lon="34.9227900">
<ele>364.000000</ele>
<time>2020-09-06T00:39:27.000Z</time>
</trkpt>
<trkpt lat="31.6665200" lon="34.9226700">
<ele>366.000000</ele>
<time>2020-09-06T00:39:57.000Z</time>
</trkpt>
<trkpt lat="31.6664500" lon="34.9226600">
<ele>366.000000</ele>
<time>2020-09-06T00:40:04.000Z</time>
</trkpt>
<trkpt lat="31.6663700" lon="34.9226600">
<ele>366.000000</ele>
<time>2020-09-06T00:40:12.000Z</time>
</trkpt>
<trkpt lat="31.6661300" lon="34.9226900">
<ele>366.000000</ele>
<time>2020-09-06T00:40:32.000Z</time>
</trkpt>
<trkpt lat="31.6658200" lon="34.9226900">
<ele>367.000000</ele>
<time>2020-09-06T00:40:57.000Z</time>
</trkpt>
<trkpt lat="31.6657500" lon="34.9224500">
<ele>367.000000</ele>
<time>2020-09-06T00:41:15.000Z</time>
</trkpt>
<trkpt lat="31.6657500" lon="34.9224400">
<ele>367.000000</ele>
<time>2020-09-06T00:41:15.000Z</time>
</trkpt>
<trkpt lat="31.6657800" lon="34.9220700">
<ele>365.000000</ele>
<time>2020-09-06T00:41:38.000Z</time>
</trkpt>
<trkpt lat="31.6658500" lon="34.9218200">
<ele>364.000000</ele>
<time>2020-09-06T00:41:54.000Z</time>
</trkpt>
<trkpt lat="31.6660200" lon="34.9217300">
<ele>362.000000</ele>
<time>2020-09-06T00:42:06.000Z</time>
</trkpt>
<trkpt lat="31.6665900" lon="34.9218700">
<ele>359.000000</ele>
<time>2020-09-06T00:42:50.000Z</time>
</trkpt>
<trkpt lat="31.6666500" lon="34.9219500">
<ele>360.000031</ele>
<time>2020-09-06T00:42:58.000Z</time>
</trkpt>
<trkpt lat="31.6669900" lon="34.9220900">
<ele>361.000000</ele>
<time>2020-09-06T00:43:26.000Z</time>
</trkpt>
<trkpt lat="31.6671900" lon="34.9220700">
<ele>360.000031</ele>
<time>2020-09-06T00:43:38.000Z</time>
</trkpt>
<trkpt lat="31.6673200" lon="34.9219900">
<ele>358.000000</ele>
<time>2020-09-06T00:43:46.000Z</time>
</trkpt>
<trkpt lat="31.6675100" lon="34.9218300">
<ele>355.000000</ele>
<time>2020-09-06T00:43:59.000Z</time>
</trkpt>
<trkpt lat="31.6677700" lon="34.9214700">
<ele>348.000000</ele>
<time>2020-09-06T00:44:21.000Z</time>
</trkpt>
<trkpt lat="31.6679800" lon="34.9209600">
<ele>339.000000</ele>
<time>2020-09-06T00:44:48.000Z</time>
</trkpt>
<trkpt lat="31.6678700" lon="34.9210100">
<ele>340.000000</ele>
<time>2020-09-06T00:44:55.000Z</time>
</trkpt>
<trkpt lat="31.6676700" lon="34.9213200">
<ele>346.000031</ele>
<time>2020-09-06T00:45:49.000Z</time>
</trkpt>
<trkpt lat="31.6675600" lon="34.9215400">
<ele>350.000000</ele>
<time>2020-09-06T00:46:26.000Z</time>
</trkpt>
<trkpt lat="31.6674300" lon="34.9217200">
<ele>353.000000</ele>
<time>2020-09-06T00:47:01.000Z</time>
</trkpt>
<trkpt lat="31.6672600" lon="34.9218100">
<ele>355.000000</ele>
<time>2020-09-06T00:47:23.000Z</time>
</trkpt>
<trkpt lat="31.6670800" lon="34.9218300">
<ele>356.000000</ele>
<time>2020-09-06T00:47:36.000Z</time>
</trkpt>
<trkpt lat="31.6669200" lon="34.9217700">
<ele>356.000000</ele>
<time>2020-09-06T00:47:49.000Z</time>
</trkpt>
<trkpt lat="31.6668100" lon="34.9216800">
<ele>355.000000</ele>
<time>2020-09-06T00:47:59.000Z</time>
</trkpt>
<trkpt lat="31.6663300" lon="34.9212200">
<ele>347.000000</ele>
<time>2020-09-06T00:48:44.000Z</time>
</trkpt>
<trkpt lat="31.6660300" lon="34.9211100">
<ele>347.000000</ele>
<time>2020-09-06T00:49:06.000Z</time>
</trkpt>
<trkpt lat="31.6654600" lon="34.9209900">
<ele>345.000000</ele>
<time>2020-09-06T00:49:47.000Z</time>
</trkpt>
<trkpt lat="31.6652300" lon="34.9209100">
<ele>344.000000</ele>
<time>2020-09-06T00:50:04.000Z</time>
</trkpt>
<trkpt lat="31.6650800" lon="34.9208700">
<ele>343.000000</ele>
<time>2020-09-06T00:50:15.000Z</time>
</trkpt>
<trkpt lat="31.6649000" lon="34.9208400">
<ele>341.000000</ele>
<time>2020-09-06T00:50:29.000Z</time>
</trkpt>
<trkpt lat="31.6647900" lon="34.9208600">
<ele>340.000000</ele>
<time>2020-09-06T00:50:38.000Z</time>
</trkpt>
<trkpt lat="31.6647200" lon="34.9209100">
<ele>339.000000</ele>
<time>2020-09-06T00:50:44.000Z</time>
</trkpt>
<trkpt lat="31.6646600" lon="34.9210000">
<ele>339.000000</ele>
<time>2020-09-06T00:50:52.000Z</time>
</trkpt>
<trkpt lat="31.6646400" lon="34.9210800">
<ele>339.000000</ele>
<time>2020-09-06T00:50:57.000Z</time>
</trkpt>
<trkpt lat="31.6646500" lon="34.9211800">
<ele>341.000000</ele>
<time>2020-09-06T00:51:04.000Z</time>
</trkpt>
<trkpt lat="31.6649200" lon="34.9219000">
<ele>353.000000</ele>
<time>2020-09-06T00:52:41.000Z</time>
</trkpt>
<trkpt lat="31.6648600" lon="34.9221600">
<ele>354.000000</ele>
<time>2020-09-06T00:53:17.000Z</time>
</trkpt>
<trkpt lat="31.6646700" lon="34.9222000">
<ele>351.999969</ele>
<time>2020-09-06T00:53:30.000Z</time>
</trkpt>
<trkpt lat="31.6644500" lon="34.9221800">
<ele>349.000031</ele>
<time>2020-09-06T00:53:43.000Z</time>
</trkpt>
<trkpt lat="31.6639800" lon="34.9221500">
<ele>344.000000</ele>
<time>2020-09-06T00:54:11.000Z</time>
</trkpt>
<trkpt lat="31.6638800" lon="34.9221100">
<ele>343.000000</ele>
<time>2020-09-06T00:54:18.000Z</time>
</trkpt>
<trkpt lat="31.6636200" lon="34.9219600">
<ele>339.000000</ele>
<time>2020-09-06T00:54:36.000Z</time>
</trkpt>
<trkpt lat="31.6635100" lon="34.9219500">
<ele>337.999969</ele>
<time>2020-09-06T00:54:43.000Z</time>
</trkpt>
<trkpt lat="31.6631900" lon="34.9220200">
<ele>339.000000</ele>
<time>2020-09-06T00:55:05.000Z</time>
</trkpt>
<trkpt lat="31.6630100" lon="34.9221100">
<ele>341.000000</ele>
<time>2020-09-06T00:55:20.000Z</time>
</trkpt>
<trkpt lat="31.6628600" lon="34.9218700">
<ele>339.000000</ele>
<time>2020-09-06T00:55:39.000Z</time>
</trkpt>
<trkpt lat="31.6627500" lon="34.9213500">
<ele>335.000031</ele>
<time>2020-09-06T00:56:15.000Z</time>
</trkpt>
<trkpt lat="31.6623400" lon="34.9204800">
<ele>337.000000</ele>
<time>2020-09-06T00:57:24.000Z</time>
</trkpt>
<trkpt lat="31.6622600" lon="34.9202000">
<ele>336.000000</ele>
<time>2020-09-06T00:57:48.000Z</time>
</trkpt>
<trkpt lat="31.6620200" lon="34.9198300">
<ele>337.999969</ele>
<time>2020-09-06T00:58:25.000Z</time>
</trkpt>
<trkpt lat="31.6619700" lon="34.9197200">
<ele>337.000000</ele>
<time>2020-09-06T00:58:34.000Z</time>
</trkpt>
<trkpt lat="31.6619700" lon="34.9197100">
<ele>337.000000</ele>
<time>2020-09-06T00:58:35.000Z</time>
</trkpt>
<trkpt lat="31.6618900" lon="34.9196500">
<ele>337.999969</ele>
<time>2020-09-06T00:58:43.000Z</time>
</trkpt>
<trkpt lat="31.6617900" lon="34.9196000">
<ele>339.000000</ele>
<time>2020-09-06T00:58:53.000Z</time>
</trkpt>
<trkpt lat="31.6615800" lon="34.9195100">
<ele>340.000000</ele>
<time>2020-09-06T00:59:12.000Z</time>
</trkpt>
<trkpt lat="31.6614800" lon="34.9195200">
<ele>339.000000</ele>
<time>2020-09-06T00:59:21.000Z</time>
</trkpt>
<trkpt lat="31.6613500" lon="34.9195800">
<ele>339.000000</ele>
<time>2020-09-06T00:59:35.000Z</time>
</trkpt>
<trkpt lat="31.6614900" lon="34.9198500">
<ele>344.000000</ele>
<time>2020-09-06T01:00:23.000Z</time>
</trkpt>
<trkpt lat="31.6615200" lon="34.9201100">
<ele>348.000000</ele>
<time>2020-09-06T01:01:03.000Z</time>
</trkpt>
<trkpt lat="31.6615500" lon="34.9206700">
<ele>355.000000</ele>
<time>2020-09-06T01:02:25.000Z</time>
</trkpt>
<trkpt lat="31.6614200" lon="34.9209400">
<ele>359.000000</ele>
<time>2020-09-06T01:03:06.000Z</time>
</trkpt>
<trkpt lat="31.6613000" lon="34.9211300">
<ele>362.000000</ele>
<time>2020-09-06T01:03:38.000Z</time>
</trkpt>
<trkpt lat="31.6610800" lon="34.9211700">
<ele>365.000000</ele>
<time>2020-09-06T01:04:12.000Z</time>
</trkpt>
<trkpt lat="31.6601600" lon="34.9212700">
<ele>374.000031</ele>
<time>2020-09-06T01:06:10.000Z</time>
</trkpt>
<trkpt lat="31.6597400" lon="34.9210800">
<ele>373.000000</ele>
<time>2020-09-06T01:06:53.000Z</time>
</trkpt>
<trkpt lat="31.6593000" lon="34.9209400">
<ele>374.000031</ele>
<time>2020-09-06T01:07:36.000Z</time>
</trkpt>
<trkpt lat="31.6591300" lon="34.9209800">
<ele>375.000000</ele>
<time>2020-09-06T01:07:52.000Z</time>
</trkpt>
<trkpt lat="31.6590300" lon="34.9210900">
<ele>375.000000</ele>
<time>2020-09-06T01:08:05.000Z</time>
</trkpt>
<trkpt lat="31.6589400" lon="34.9212200">
<ele>375.000000</ele>
<time>2020-09-06T01:08:19.000Z</time>
</trkpt>
<trkpt lat="31.6587000" lon="34.9217600">
<ele>376.000000</ele>
<time>2020-09-06T01:08:57.000Z</time>
</trkpt>
<trkpt lat="31.6580400" lon="34.9224500">
<ele>366.000000</ele>
<time>2020-09-06T01:10:18.000Z</time>
</trkpt>
<trkpt lat="31.6578600" lon="34.9226700">
<ele>362.000000</ele>
<time>2020-09-06T01:10:46.000Z</time>
</trkpt>
<trkpt lat="31.6578000" lon="34.9227100">
<ele>361.000000</ele>
<time>2020-09-06T01:10:52.000Z</time>
</trkpt>
<trkpt lat="31.6577200" lon="34.9227300">
<ele>359.000000</ele>
<time>2020-09-06T01:10:58.000Z</time>
</trkpt>
<trkpt lat="31.6575000" lon="34.9226400">
<ele>357.000000</ele>
<time>2020-09-06T01:11:15.000Z</time>
</trkpt>
<trkpt lat="31.6573300" lon="34.9226500">
<ele>358.000000</ele>
<time>2020-09-06T01:11:27.000Z</time>
</trkpt>
<trkpt lat="31.6571500" lon="34.9226400">
<ele>358.000000</ele>
<time>2020-09-06T01:11:40.000Z</time>
</trkpt>
<trkpt lat="31.6570800" lon="34.9226300">
<ele>358.000000</ele>
<time>2020-09-06T01:11:45.000Z</time>
</trkpt>
<trkpt lat="31.6568000" lon="34.9225200">
<ele>360.000031</ele>
<time>2020-09-06T01:12:12.000Z</time>
</trkpt>
<trkpt lat="31.6564300" lon="34.9223000">
<ele>359.000000</ele>
<time>2020-09-06T01:12:52.000Z</time>
</trkpt>
<trkpt lat="31.6562400" lon="34.9222100">
<ele>360.000031</ele>
<time>2020-09-06T01:13:12.000Z</time>
</trkpt>
<trkpt lat="31.6549600" lon="34.9218100">
<ele>371.000000</ele>
<time>2020-09-06T01:15:58.000Z</time>
</trkpt>
<trkpt lat="31.6544300" lon="34.9215500">
<ele>376.999969</ele>
<time>2020-09-06T01:17:09.000Z</time>
</trkpt>
<trkpt lat="31.6543800" lon="34.9215600">
<ele>376.999969</ele>
<time>2020-09-06T01:17:14.000Z</time>
</trkpt>
<trkpt lat="31.6543100" lon="34.9216000">
<ele>378.000000</ele>
<time>2020-09-06T01:17:23.000Z</time>
</trkpt>
<trkpt lat="31.6542500" lon="34.9216800">
<ele>379.000000</ele>
<time>2020-09-06T01:17:34.000Z</time>
</trkpt>
<trkpt lat="31.6542100" lon="34.9217200">
<ele>379.000000</ele>
<time>2020-09-06T01:17:40.000Z</time>
</trkpt>
<trkpt lat="31.6541300" lon="34.9217800">
<ele>379.000000</ele>
<time>2020-09-06T01:17:51.000Z</time>
</trkpt>
<trkpt lat="31.6540500" lon="34.9218100">
<ele>378.000000</ele>
<time>2020-09-06T01:18:01.000Z</time>
</trkpt>
<trkpt lat="31.6538700" lon="34.9218400">
<ele>376.999969</ele>
<time>2020-09-06T01:18:15.000Z</time>
</trkpt>
<trkpt lat="31.6537900" lon="34.9218400">
<ele>376.999969</ele>
<time>2020-09-06T01:18:21.000Z</time>
</trkpt>
<trkpt lat="31.6537100" lon="34.9218200">
<ele>376.000000</ele>
<time>2020-09-06T01:18:27.000Z</time>
</trkpt>
<trkpt lat="31.6533400" lon="34.9215400">
<ele>376.000000</ele>
<time>2020-09-06T01:19:00.000Z</time>
</trkpt>
<trkpt lat="31.6532500" lon="34.9214500">
<ele>374.000031</ele>
<time>2020-09-06T01:19:09.000Z</time>
</trkpt>
<trkpt lat="31.6531700" lon="34.9212800">
<ele>373.000000</ele>
<time>2020-09-06T01:19:21.000Z</time>
</trkpt>
<trkpt lat="31.6531200" lon="34.9210300">
<ele>372.000000</ele>
<time>2020-09-06T01:19:37.000Z</time>
</trkpt>
<trkpt lat="31.6531100" lon="34.9207700">
<ele>372.000000</ele>
<time>2020-09-06T01:19:53.000Z</time>
</trkpt>
<trkpt lat="31.6531200" lon="34.9206700">
<ele>372.000000</ele>
<time>2020-09-06T01:19:59.000Z</time>
</trkpt>
<trkpt lat="31.6532600" lon="34.9200100">
<ele>375.000000</ele>
<time>2020-09-06T01:20:57.000Z</time>
</trkpt>
<trkpt lat="31.6532700" lon="34.9198600">
<ele>376.000000</ele>
<time>2020-09-06T01:21:10.000Z</time>
</trkpt>
<trkpt lat="31.6532500" lon="34.9197700">
<ele>376.000000</ele>
<time>2020-09-06T01:21:18.000Z</time>
</trkpt>
<trkpt lat="31.6531900" lon="34.9196200">
<ele>376.000000</ele>
<time>2020-09-06T01:21:31.000Z</time>
</trkpt>
<trkpt lat="31.6530900" lon="34.9194500">
<ele>376.000000</ele>
<time>2020-09-06T01:21:46.000Z</time>
</trkpt>
<trkpt lat="31.6529200" lon="34.9192700">
<ele>376.000000</ele>
<time>2020-09-06T01:22:06.000Z</time>
</trkpt>
<trkpt lat="31.6527800" lon="34.9191700">
<ele>376.999969</ele>
<time>2020-09-06T01:22:20.000Z</time>
</trkpt>
<trkpt lat="31.6525700" lon="34.9190900">
<ele>376.999969</ele>
<time>2020-09-06T01:22:39.000Z</time>
</trkpt>
<trkpt lat="31.6522400" lon="34.9190800">
<ele>376.999969</ele>
<time>2020-09-06T01:23:06.000Z</time>
</trkpt>
<trkpt lat="31.6520000" lon="34.9191400">
<ele>376.999969</ele>
<time>2020-09-06T01:23:25.000Z</time>
</trkpt>
<trkpt lat="31.6514300" lon="34.9194300">
<ele>375.000000</ele>
<time>2020-09-06T01:24:14.000Z</time>
</trkpt>
<trkpt lat="31.6513000" lon="34.9194600">
<ele>376.000000</ele>
<time>2020-09-06T01:24:24.000Z</time>
</trkpt>
<trkpt lat="31.6509300" lon="34.9195100">
<ele>376.000000</ele>
<time>2020-09-06T01:24:53.000Z</time>
</trkpt>
<trkpt lat="31.6505800" lon="34.9194500">
<ele>375.000000</ele>
<time>2020-09-06T01:25:21.000Z</time>
</trkpt>
<trkpt lat="31.6504300" lon="34.9193800">
<ele>375.000000</ele>
<time>2020-09-06T01:25:33.000Z</time>
</trkpt>
<trkpt lat="31.6503000" lon="34.9192900">
<ele>375.000000</ele>
<time>2020-09-06T01:25:45.000Z</time>
</trkpt>
<trkpt lat="31.6502300" lon="34.9192300">
<ele>375.000000</ele>
<time>2020-09-06T01:25:53.000Z</time>
</trkpt>
<trkpt lat="31.6501600" lon="34.9191100">
<ele>375.000000</ele>
<time>2020-09-06T01:26:05.000Z</time>
</trkpt>
<trkpt lat="31.6500700" lon="34.9188600">
<ele>376.000000</ele>
<time>2020-09-06T01:26:27.000Z</time>
</trkpt>
<trkpt lat="31.6499800" lon="34.9185200">
<ele>376.999969</ele>
<time>2020-09-06T01:26:55.000Z</time>
</trkpt>
<trkpt lat="31.6499000" lon="34.9183100">
<ele>378.000000</ele>
<time>2020-09-06T01:27:13.000Z</time>
</trkpt>
<trkpt lat="31.6498400" lon="34.9182100">
<ele>378.000000</ele>
<time>2020-09-06T01:27:22.000Z</time>
</trkpt>
<trkpt lat="31.6496800" lon="34.9180500">
<ele>378.000000</ele>
<time>2020-09-06T01:27:40.000Z</time>
</trkpt>
<trkpt lat="31.6495800" lon="34.9179900">
<ele>378.000000</ele>
<time>2020-09-06T01:27:50.000Z</time>
</trkpt>
<trkpt lat="31.6494700" lon="34.9179600">
<ele>378.000000</ele>
<time>2020-09-06T01:28:00.000Z</time>
</trkpt>
<trkpt lat="31.6492700" lon="34.9179600">
<ele>376.999969</ele>
<time>2020-09-06T01:28:17.000Z</time>
</trkpt>
<trkpt lat="31.6487600" lon="34.9181200">
<ele>378.000000</ele>
<time>2020-09-06T01:28:59.000Z</time>
</trkpt>
<trkpt lat="31.6486400" lon="34.9181700">
<ele>378.000000</ele>
<time>2020-09-06T01:29:09.000Z</time>
</trkpt>
<trkpt lat="31.6480900" lon="34.9184900">
<ele>378.000000</ele>
<time>2020-09-06T01:29:58.000Z</time>
</trkpt>
<trkpt lat="31.6480100" lon="34.9185100">
<ele>376.999969</ele>
<time>2020-09-06T01:30:05.000Z</time>
</trkpt>
<trkpt lat="31.6478600" lon="34.9185200">
<ele>378.000000</ele>
<time>2020-09-06T01:30:17.000Z</time>
</trkpt>
<trkpt lat="31.6477500" lon="34.9185100">
<ele>378.000000</ele>
<time>2020-09-06T01:30:27.000Z</time>
</trkpt>
<trkpt lat="31.6476800" lon="34.9184600">
<ele>378.000000</ele>
<time>2020-09-06T01:30:36.000Z</time>
</trkpt>
<trkpt lat="31.6476400" lon="34.9184000">
<ele>378.000000</ele>
<time>2020-09-06T01:30:42.000Z</time>
</trkpt>
<trkpt lat="31.6476100" lon="34.9183200">
<ele>378.000000</ele>
<time>2020-09-06T01:30:50.000Z</time>
</trkpt>
<trkpt lat="31.6475900" lon="34.9182300">
<ele>379.000000</ele>
<time>2020-09-06T01:30:58.000Z</time>
</trkpt>
<trkpt lat="31.6475800" lon="34.9180600">
<ele>379.000000</ele>
<time>2020-09-06T01:31:13.000Z</time>
</trkpt>
<trkpt lat="31.6475800" lon="34.9179900">
<ele>380.000000</ele>
<time>2020-09-06T01:31:19.000Z</time>
</trkpt>
<trkpt lat="31.6476100" lon="34.9178600">
<ele>380.000000</ele>
<time>2020-09-06T01:31:30.000Z</time>
</trkpt>
<trkpt lat="31.6476600" lon="34.9177400">
<ele>381.000000</ele>
<time>2020-09-06T01:31:42.000Z</time>
</trkpt>
<trkpt lat="31.6476800" lon="34.9176300">
<ele>381.000000</ele>
<time>2020-09-06T01:31:51.000Z</time>
</trkpt>
<trkpt lat="31.6476700" lon="34.9175100">
<ele>382.000000</ele>
<time>2020-09-06T01:32:00.000Z</time>
</trkpt>
<trkpt lat="31.6475300" lon="34.9169600">
<ele>383.000000</ele>
<time>2020-09-06T01:32:47.000Z</time>
</trkpt>
<trkpt lat="31.6472300" lon="34.9160000">
<ele>376.999969</ele>
<time>2020-09-06T01:33:47.000Z</time>
</trkpt>
<trkpt lat="31.6469300" lon="34.9162100">
<ele>376.000000</ele>
<time>2020-09-06T01:34:14.000Z</time>
</trkpt>
<trkpt lat="31.6468500" lon="34.9162600">
<ele>376.000000</ele>
<time>2020-09-06T01:34:21.000Z</time>
</trkpt>
<trkpt lat="31.6467400" lon="34.9163000">
<ele>376.000000</ele>
<time>2020-09-06T01:34:30.000Z</time>
</trkpt>
<trkpt lat="31.6464200" lon="34.9163400">
<ele>376.000000</ele>
<time>2020-09-06T01:34:55.000Z</time>
</trkpt>
<trkpt lat="31.6463100" lon="34.9163400">
<ele>375.000000</ele>
<time>2020-09-06T01:35:03.000Z</time>
</trkpt>
<trkpt lat="31.6460900" lon="34.9163100">
<ele>375.000000</ele>
<time>2020-09-06T01:35:20.000Z</time>
</trkpt>
<trkpt lat="31.6456500" lon="34.9163100">
<ele>375.000000</ele>
<time>2020-09-06T01:35:55.000Z</time>
</trkpt>
<trkpt lat="31.6455500" lon="34.9163500">
<ele>376.000000</ele>
<time>2020-09-06T01:36:05.000Z</time>
</trkpt>
<trkpt lat="31.6454800" lon="34.9165100">
<ele>379.000000</ele>
<time>2020-09-06T01:36:20.000Z</time>
</trkpt>
<trkpt lat="31.6454000" lon="34.9164900">
<ele>378.000000</ele>
<time>2020-09-06T01:36:28.000Z</time>
</trkpt>
<trkpt lat="31.6452800" lon="34.9164700">
<ele>378.000000</ele>
<time>2020-09-06T01:36:41.000Z</time>
</trkpt>
<trkpt lat="31.6450900" lon="34.9164700">
<ele>379.000000</ele>
<time>2020-09-06T01:37:00.000Z</time>
</trkpt>
<trkpt lat="31.6449800" lon="34.9164500">
<ele>378.000000</ele>
<time>2020-09-06T01:37:11.000Z</time>
</trkpt>
<trkpt lat="31.6448300" lon="34.9164000">
<ele>376.999969</ele>
<time>2020-09-06T01:37:25.000Z</time>
</trkpt>
<trkpt lat="31.6447600" lon="34.9163300">
<ele>376.000000</ele>
<time>2020-09-06T01:37:31.000Z</time>
</trkpt>
<trkpt lat="31.6446600" lon="34.9163000">
<ele>376.000000</ele>
<time>2020-09-06T01:37:39.000Z</time>
</trkpt>
<trkpt lat="31.6445400" lon="34.9162900">
<ele>376.000000</ele>
<time>2020-09-06T01:37:48.000Z</time>
</trkpt>
<trkpt lat="31.6444200" lon="34.9162700">
<ele>376.000000</ele>
<time>2020-09-06T01:37:57.000Z</time>
</trkpt>
<trkpt lat="31.6441700" lon="34.9161800">
<ele>375.000000</ele>
<time>2020-09-06T01:38:16.000Z</time>
</trkpt>
<trkpt lat="31.6438100" lon="34.9161100">
<ele>376.000000</ele>
<time>2020-09-06T01:38:54.000Z</time>
</trkpt>
<trkpt lat="31.6436100" lon="34.9160400">
<ele>376.999969</ele>
<time>2020-09-06T01:39:17.000Z</time>
</trkpt>
<trkpt lat="31.6434100" lon="34.9159300">
<ele>378.000000</ele>
<time>2020-09-06T01:39:40.000Z</time>
</trkpt>
<trkpt lat="31.6430500" lon="34.9159100">
<ele>381.000000</ele>
<time>2020-09-06T01:40:20.000Z</time>
</trkpt>
<trkpt lat="31.6427700" lon="34.9159100">
<ele>382.000000</ele>
<time>2020-09-06T01:40:50.000Z</time>
</trkpt>
<trkpt lat="31.6426900" lon="34.9158600">
<ele>383.000000</ele>
<time>2020-09-06T01:41:00.000Z</time>
</trkpt>
<trkpt lat="31.6426700" lon="34.9157400">
<ele>383.000000</ele>
<time>2020-09-06T01:41:11.000Z</time>
</trkpt>
<trkpt lat="31.6427100" lon="34.9155000">
<ele>382.000000</ele>
<time>2020-09-06T01:41:28.000Z</time>
</trkpt>
<trkpt lat="31.6427000" lon="34.9153800">
<ele>382.000000</ele>
<time>2020-09-06T01:41:37.000Z</time>
</trkpt>
<trkpt lat="31.6426500" lon="34.9152600">
<ele>382.000000</ele>
<time>2020-09-06T01:41:46.000Z</time>
</trkpt>
<trkpt lat="31.6425900" lon="34.9152000">
<ele>382.000000</ele>
<time>2020-09-06T01:41:52.000Z</time>
</trkpt>
<trkpt lat="31.6425000" lon="34.9151500">
<ele>382.000000</ele>
<time>2020-09-06T01:42:00.000Z</time>
</trkpt>
<trkpt lat="31.6423700" lon="34.9151100">
<ele>383.000000</ele>
<time>2020-09-06T01:42:11.000Z</time>
</trkpt>
<trkpt lat="31.6422500" lon="34.9150800">
<ele>383.000000</ele>
<time>2020-09-06T01:42:21.000Z</time>
</trkpt>
<trkpt lat="31.6419100" lon="34.9150200">
<ele>385.000031</ele>
<time>2020-09-06T01:42:56.000Z</time>
</trkpt>
<trkpt lat="31.6414400" lon="34.9148900">
<ele>386.000000</ele>
<time>2020-09-06T01:43:45.000Z</time>
</trkpt>
<trkpt lat="31.6411300" lon="34.9147400">
<ele>386.000000</ele>
<time>2020-09-06T01:44:16.000Z</time>
</trkpt>
<trkpt lat="31.6404500" lon="34.9143700">
<ele>387.999969</ele>
<time>2020-09-06T01:45:25.000Z</time>
</trkpt>
<trkpt lat="31.6403000" lon="34.9143000">
<ele>389.000000</ele>
<time>2020-09-06T01:45:39.000Z</time>
</trkpt>
<trkpt lat="31.6402000" lon="34.9142700">
<ele>389.000000</ele>
<time>2020-09-06T01:45:48.000Z</time>
</trkpt>
<trkpt lat="31.6401300" lon="34.9142800">
<ele>389.000000</ele>
<time>2020-09-06T01:45:54.000Z</time>
</trkpt>
<trkpt lat="31.6400716" lon="34.9143083">
<ele>389.000000</ele>
<time>2020-09-06T01:45:59.000Z</time>
</trkpt>
<trkpt lat="31.6398040" lon="34.9144390">
<ele>390.000000</ele>
<time>2020-09-06T01:46:25.000Z</time>
</trkpt>
<trkpt lat="31.6394350" lon="34.9145030">
<ele>390.000000</ele>
<time>2020-09-06T01:46:57.000Z</time>
</trkpt>
<trkpt lat="31.6390150" lon="34.9146860">
<ele>389.000000</ele>
<time>2020-09-06T01:47:32.000Z</time>
</trkpt>
<trkpt lat="31.6386670" lon="34.9148890">
<ele>387.999969</ele>
<time>2020-09-06T01:48:00.000Z</time>
</trkpt>
<trkpt lat="31.6385420" lon="34.9149240">
<ele>387.000000</ele>
<time>2020-09-06T01:48:09.000Z</time>
</trkpt>
<trkpt lat="31.6384690" lon="34.9148390">
<ele>386.000000</ele>
<time>2020-09-06T01:48:16.000Z</time>
</trkpt>
<trkpt lat="31.6384640" lon="34.9147970">
<ele>386.000000</ele>
<time>2020-09-06T01:48:19.000Z</time>
</trkpt>
<trkpt lat="31.6384840" lon="34.9143470">
<ele>384.000000</ele>
<time>2020-09-06T01:48:46.000Z</time>
</trkpt>
<trkpt lat="31.6385240" lon="34.9142280">
<ele>384.000000</ele>
<time>2020-09-06T01:48:53.000Z</time>
</trkpt>
<trkpt lat="31.6386450" lon="34.9140970">
<ele>383.000000</ele>
<time>2020-09-06T01:49:05.000Z</time>
</trkpt>
<trkpt lat="31.6387250" lon="34.9140460">
<ele>382.000000</ele>
<time>2020-09-06T01:49:11.000Z</time>
</trkpt>
<trkpt lat="31.6389700" lon="34.9139030">
<ele>381.000000</ele>
<time>2020-09-06T01:49:30.000Z</time>
</trkpt>
<trkpt lat="31.6391320" lon="34.9138640">
<ele>381.000000</ele>
<time>2020-09-06T01:49:41.000Z</time>
</trkpt>
<trkpt lat="31.6389890" lon="34.9138920">
<ele>380.000000</ele>
<time>2020-09-06T01:49:51.000Z</time>
</trkpt>
<trkpt lat="31.6388720" lon="34.9138340">
<ele>378.000000</ele>
<time>2020-09-06T01:50:00.000Z</time>
</trkpt>
<trkpt lat="31.6385360" lon="34.9137450">
<ele>374.000031</ele>
<time>2020-09-06T01:50:22.000Z</time>
</trkpt>
<trkpt lat="31.6383550" lon="34.9137230">
<ele>372.000000</ele>
<time>2020-09-06T01:50:33.000Z</time>
</trkpt>
<trkpt lat="31.6381720" lon="34.9137240">
<ele>371.000000</ele>
<time>2020-09-06T01:50:45.000Z</time>
</trkpt>
<trkpt lat="31.6378290" lon="34.9137870">
<ele>370.000000</ele>
<time>2020-09-06T01:51:08.000Z</time>
</trkpt>
<trkpt lat="31.6376640" lon="34.9137870">
<ele>369.000000</ele>
<time>2020-09-06T01:51:20.000Z</time>
</trkpt>
<trkpt lat="31.6375240" lon="34.9137560">
<ele>367.000000</ele>
<time>2020-09-06T01:51:30.000Z</time>
</trkpt>
<trkpt lat="31.6374920" lon="34.9137300">
<ele>367.000000</ele>
<time>2020-09-06T01:51:33.000Z</time>
</trkpt>
<trkpt lat="31.6375240" lon="34.9137560">
<ele>367.000000</ele>
<time>2020-09-06T01:51:35.000Z</time>
</trkpt>
<trkpt lat="31.6378640" lon="34.9135720">
<ele>366.000000</ele>
<time>2020-09-06T01:52:00.000Z</time>
</trkpt>
<trkpt lat="31.6382630" lon="34.9131370">
<ele>359.000000</ele>
<time>2020-09-06T01:52:32.000Z</time>
</trkpt>
<trkpt lat="31.6385960" lon="34.9128810">
<ele>354.000000</ele>
<time>2020-09-06T01:52:59.000Z</time>
</trkpt>
<trkpt lat="31.6386820" lon="34.9128520">
<ele>354.000000</ele>
<time>2020-09-06T01:53:05.000Z</time>
</trkpt>
<trkpt lat="31.6389130" lon="34.9128930">
<ele>356.000000</ele>
<time>2020-09-06T01:53:22.000Z</time>
</trkpt>
<trkpt lat="31.6390220" lon="34.9128980">
<ele>357.000000</ele>
<time>2020-09-06T01:53:30.000Z</time>
</trkpt>
<trkpt lat="31.6391410" lon="34.9126810">
<ele>351.999969</ele>
<time>2020-09-06T01:53:49.000Z</time>
</trkpt>
<trkpt lat="31.6392810" lon="34.9123060">
<ele>346.000031</ele>
<time>2020-09-06T01:54:27.000Z</time>
</trkpt>
<trkpt lat="31.6392820" lon="34.9122430">
<ele>345.000000</ele>
<time>2020-09-06T01:54:33.000Z</time>
</trkpt>
<trkpt lat="31.6392190" lon="34.9121660">
<ele>342.000000</ele>
<time>2020-09-06T01:54:43.000Z</time>
</trkpt>
<trkpt lat="31.6391660" lon="34.9121560">
<ele>341.000000</ele>
<time>2020-09-06T01:54:49.000Z</time>
</trkpt>
<trkpt lat="31.6390780" lon="34.9121780">
<ele>341.000000</ele>
<time>2020-09-06T01:54:59.000Z</time>
</trkpt>
<trkpt lat="31.6389610" lon="34.9122380">
<ele>343.000000</ele>
<time>2020-09-06T01:55:12.000Z</time>
</trkpt>
<trkpt lat="31.6388880" lon="34.9123030">
<ele>344.000000</ele>
<time>2020-09-06T01:55:19.000Z</time>
</trkpt>
<trkpt lat="31.6388020" lon="34.9123390">
<ele>344.000000</ele>
<time>2020-09-06T01:55:26.000Z</time>
</trkpt>
<trkpt lat="31.6386600" lon="34.9123040">
<ele>343.000000</ele>
<time>2020-09-06T01:55:37.000Z</time>
</trkpt>
<trkpt lat="31.6384400" lon="34.9122980">
<ele>343.000000</ele>
<time>2020-09-06T01:55:54.000Z</time>
</trkpt>
<trkpt lat="31.6385320" lon="34.9121730">
<ele>342.000000</ele>
<time>2020-09-06T01:56:05.000Z</time>
</trkpt>
<trkpt lat="31.6387020" lon="34.9121080">
<ele>341.000000</ele>
<time>2020-09-06T01:56:22.000Z</time>
</trkpt>
<trkpt lat="31.6387460" lon="34.9120710">
<ele>340.000000</ele>
<time>2020-09-06T01:56:28.000Z</time>
</trkpt>
<trkpt lat="31.6387980" lon="34.9119860">
<ele>339.000000</ele>
<time>2020-09-06T01:56:38.000Z</time>
</trkpt>
<trkpt lat="31.6388730" lon="34.9116200">
<ele>333.000000</ele>
<time>2020-09-06T01:57:13.000Z</time>
</trkpt>
<trkpt lat="31.6392340" lon="34.9107220">
<ele>319.000000</ele>
<time>2020-09-06T01:58:44.000Z</time>
</trkpt>
<trkpt lat="31.6393620" lon="34.9102180">
<ele>317.000000</ele>
<time>2020-09-06T01:59:22.000Z</time>
</trkpt>
<trkpt lat="31.6394140" lon="34.9098880">
<ele>316.000000</ele>
<time>2020-09-06T01:59:42.000Z</time>
</trkpt>
<trkpt lat="31.6394540" lon="34.9093640">
<ele>312.000000</ele>
<time>2020-09-06T02:00:12.000Z</time>
</trkpt>
<trkpt lat="31.6394520" lon="34.9092160">
<ele>311.000000</ele>
<time>2020-09-06T02:00:20.000Z</time>
</trkpt>
<trkpt lat="31.6394380" lon="34.9091550">
<ele>311.000000</ele>
<time>2020-09-06T02:00:24.000Z</time>
</trkpt>
<trkpt lat="31.6394410" lon="34.9084160">
<ele>306.000000</ele>
<time>2020-09-06T02:01:05.000Z</time>
</trkpt>
<trkpt lat="31.6394200" lon="34.9081630">
<ele>304.000000</ele>
<time>2020-09-06T02:01:19.000Z</time>
</trkpt>
<trkpt lat="31.6394190" lon="34.9079520">
<ele>303.000000</ele>
<time>2020-09-06T02:01:31.000Z</time>
</trkpt>
<trkpt lat="31.6393820" lon="34.9075330">
<ele>300.000000</ele>
<time>2020-09-06T02:01:54.000Z</time>
</trkpt>
<trkpt lat="31.6393300" lon="34.9072250">
<ele>298.000000</ele>
<time>2020-09-06T02:02:12.000Z</time>
</trkpt>
<trkpt lat="31.6392730" lon="34.9067480">
<ele>295.000000</ele>
<time>2020-09-06T02:02:39.000Z</time>
</trkpt>
<trkpt lat="31.6392760" lon="34.9063890">
<ele>294.000000</ele>
<time>2020-09-06T02:03:01.000Z</time>
</trkpt>
<trkpt lat="31.6393680" lon="34.9057700">
<ele>292.000000</ele>
<time>2020-09-06T02:03:40.000Z</time>
</trkpt>
<trkpt lat="31.6394810" lon="34.9052400">
<ele>291.000000</ele>
<time>2020-09-06T02:04:15.000Z</time>
</trkpt>
<trkpt lat="31.6396150" lon="34.9048260">
<ele>289.000000</ele>
<time>2020-09-06T02:04:43.000Z</time>
</trkpt>
<trkpt lat="31.6398680" lon="34.9041800">
<ele>284.000000</ele>
<time>2020-09-06T02:05:21.000Z</time>
</trkpt>
<trkpt lat="31.6399840" lon="34.9037140">
<ele>282.000000</ele>
<time>2020-09-06T02:05:55.000Z</time>
</trkpt>
<trkpt lat="31.6399850" lon="34.9035880">
<ele>282.000000</ele>
<time>2020-09-06T02:06:05.000Z</time>
</trkpt>
<trkpt lat="31.6399610" lon="34.9034880">
<ele>282.000000</ele>
<time>2020-09-06T02:06:14.000Z</time>
</trkpt>
<trkpt lat="31.6399260" lon="34.9034150">
<ele>282.000000</ele>
<time>2020-09-06T02:06:20.000Z</time>
</trkpt>
<trkpt lat="31.6398450" lon="34.9033190">
<ele>283.000000</ele>
<time>2020-09-06T02:06:31.000Z</time>
</trkpt>
<trkpt lat="31.6396430" lon="34.9031820">
<ele>286.000000</ele>
<time>2020-09-06T02:06:56.000Z</time>
</trkpt>
<trkpt lat="31.6391230" lon="34.9029860">
<ele>292.000000</ele>
<time>2020-09-06T02:08:10.000Z</time>
</trkpt>
<trkpt lat="31.6388730" lon="34.9028690">
<ele>293.000000</ele>
<time>2020-09-06T02:08:44.000Z</time>
</trkpt>
<trkpt lat="31.6387050" lon="34.9028580">
<ele>294.000000</ele>
<time>2020-09-06T02:08:58.000Z</time>
</trkpt>
<trkpt lat="31.6383740" lon="34.9028930">
<ele>295.000000</ele>
<time>2020-09-06T02:09:27.000Z</time>
</trkpt>
<trkpt lat="31.6382910" lon="34.9028640">
<ele>295.000000</ele>
<time>2020-09-06T02:09:35.000Z</time>
</trkpt>
<trkpt lat="31.6381760" lon="34.9027350">
<ele>294.000000</ele>
<time>2020-09-06T02:09:49.000Z</time>
</trkpt>
<trkpt lat="31.6378830" lon="34.9022680">
<ele>291.000000</ele>
<time>2020-09-06T02:10:22.000Z</time>
</trkpt>
<trkpt lat="31.6374990" lon="34.9016970">
<ele>285.000000</ele>
<time>2020-09-06T02:11:04.000Z</time>
</trkpt>
<trkpt lat="31.6374460" lon="34.9015870">
<ele>285.000000</ele>
<time>2020-09-06T02:11:11.000Z</time>
</trkpt>
<trkpt lat="31.6374050" lon="34.9013950">
<ele>284.000000</ele>
<time>2020-09-06T02:11:22.000Z</time>
</trkpt>
<trkpt lat="31.6374220" lon="34.9012070">
<ele>283.000000</ele>
<time>2020-09-06T02:11:32.000Z</time>
</trkpt>
<trkpt lat="31.6375700" lon="34.9002540">
<ele>280.000000</ele>
<time>2020-09-06T02:12:32.000Z</time>
</trkpt>
<trkpt lat="31.6376000" lon="34.8998030">
<ele>277.000000</ele>
<time>2020-09-06T02:12:56.000Z</time>
</trkpt>
<trkpt lat="31.6375740" lon="34.8993410">
<ele>273.000000</ele>
<time>2020-09-06T02:13:20.000Z</time>
</trkpt>
<trkpt lat="31.6375070" lon="34.8990800">
<ele>271.000000</ele>
<time>2020-09-06T02:13:38.000Z</time>
</trkpt>
<trkpt lat="31.6382010" lon="34.8982430">
<ele>270.000000</ele>
<time>2020-09-06T02:14:58.000Z</time>
</trkpt>
<trkpt lat="31.6382625" lon="34.8975521">
<ele>268.000000</ele>
<time>2020-09-06T02:15:40.000Z</time>
</trkpt>
<trkpt lat="31.6382900" lon="34.8972500">
<ele>267.000000</ele>
<time>2020-09-06T02:15:59.000Z</time>
</trkpt>
<trkpt lat="31.6381900" lon="34.8968900">
<ele>266.000000</ele>
<time>2020-09-06T02:16:23.000Z</time>
</trkpt>
<trkpt lat="31.6379500" lon="34.8959900">
<ele>265.000000</ele>
<time>2020-09-06T02:17:25.000Z</time>
</trkpt>
<trkpt lat="31.6380600" lon="34.8931800">
<ele>258.000000</ele>
<time>2020-09-06T02:20:24.000Z</time>
</trkpt>
<trkpt lat="31.6378700" lon="34.8923800">
<ele>257.000000</ele>
<time>2020-09-06T02:21:17.000Z</time>
</trkpt>
<trkpt lat="31.6373500" lon="34.8913300">
<ele>252.000000</ele>
<time>2020-09-06T02:22:31.000Z</time>
</trkpt>
<trkpt lat="31.6366800" lon="34.8900000">
<ele>246.000000</ele>
<time>2020-09-06T02:24:09.000Z</time>
</trkpt>
<trkpt lat="31.6354100" lon="34.8886700">
<ele>244.000015</ele>
<time>2020-09-06T02:26:16.000Z</time>
</trkpt>
<trkpt lat="31.6353600" lon="34.8885500">
<ele>244.000015</ele>
<time>2020-09-06T02:26:25.000Z</time>
</trkpt>
<trkpt lat="31.6355000" lon="34.8885200">
<ele>243.000000</ele>
<time>2020-09-06T02:26:36.000Z</time>
</trkpt>
<trkpt lat="31.6356300" lon="34.8884400">
<ele>242.000000</ele>
<time>2020-09-06T02:26:47.000Z</time>
</trkpt>
<trkpt lat="31.6357400" lon="34.8883400">
<ele>242.000000</ele>
<time>2020-09-06T02:26:58.000Z</time>
</trkpt>
<trkpt lat="31.6357900" lon="34.8882400">
<ele>242.000000</ele>
<time>2020-09-06T02:27:06.000Z</time>
</trkpt>
<trkpt lat="31.6358100" lon="34.8879400">
<ele>242.000000</ele>
<time>2020-09-06T02:27:26.000Z</time>
</trkpt>
<trkpt lat="31.6357600" lon="34.8876000">
<ele>242.000000</ele>
<time>2020-09-06T02:27:52.000Z</time>
</trkpt>
<trkpt lat="31.6357600" lon="34.8873100">
<ele>242.000000</ele>
<time>2020-09-06T02:28:17.000Z</time>
</trkpt>
<trkpt lat="31.6357700" lon="34.8871800">
<ele>242.000000</ele>
<time>2020-09-06T02:28:29.000Z</time>
</trkpt>
<trkpt lat="31.6358000" lon="34.8871000">
<ele>243.000000</ele>
<time>2020-09-06T02:28:36.000Z</time>
</trkpt>
<trkpt lat="31.6358500" lon="34.8870500">
<ele>243.000000</ele>
<time>2020-09-06T02:28:43.000Z</time>
</trkpt>
<trkpt lat="31.6360100" lon="34.8869500">
<ele>245.000000</ele>
<time>2020-09-06T02:29:02.000Z</time>
</trkpt>
<trkpt lat="31.6362600" lon="34.8868700">
<ele>248.000000</ele>
<time>2020-09-06T02:29:37.000Z</time>
</trkpt>
<trkpt lat="31.6365600" lon="34.8867300">
<ele>250.999985</ele>
<time>2020-09-06T02:30:21.000Z</time>
</trkpt>
<trkpt lat="31.6366700" lon="34.8867100">
<ele>252.000000</ele>
<time>2020-09-06T02:30:37.000Z</time>
</trkpt>
<trkpt lat="31.6368400" lon="34.8867300">
<ele>253.000000</ele>
<time>2020-09-06T02:30:57.000Z</time>
</trkpt>
<trkpt lat="31.6371800" lon="34.8865700">
<ele>255.000000</ele>
<time>2020-09-06T02:31:34.000Z</time>
</trkpt>
<trkpt lat="31.6373600" lon="34.8864400">
<ele>256.000000</ele>
<time>2020-09-06T02:31:56.000Z</time>
</trkpt>
<trkpt lat="31.6374500" lon="34.8863100">
<ele>256.000000</ele>
<time>2020-09-06T02:32:10.000Z</time>
</trkpt>
<trkpt lat="31.6375500" lon="34.8861800">
<ele>257.000000</ele>
<time>2020-09-06T02:32:23.000Z</time>
</trkpt>
<trkpt lat="31.6376100" lon="34.8861400">
<ele>257.000000</ele>
<time>2020-09-06T02:32:29.000Z</time>
</trkpt>
<trkpt lat="31.6377200" lon="34.8861400">
<ele>257.000000</ele>
<time>2020-09-06T02:32:39.000Z</time>
</trkpt>
<trkpt lat="31.6379100" lon="34.8862400">
<ele>257.000000</ele>
<time>2020-09-06T02:32:57.000Z</time>
</trkpt>
<trkpt lat="31.6379900" lon="34.8862600">
<ele>257.000000</ele>
<time>2020-09-06T02:33:04.000Z</time>
</trkpt>
<trkpt lat="31.6381300" lon="34.8862500">
<ele>257.000000</ele>
<time>2020-09-06T02:33:16.000Z</time>
</trkpt>
<trkpt lat="31.6383400" lon="34.8861900">
<ele>258.000000</ele>
<time>2020-09-06T02:33:34.000Z</time>
</trkpt>
<trkpt lat="31.6384400" lon="34.8861500">
<ele>257.000000</ele>
<time>2020-09-06T02:33:43.000Z</time>
</trkpt>
<trkpt lat="31.6385000" lon="34.8861000">
<ele>257.000000</ele>
<time>2020-09-06T02:33:48.000Z</time>
</trkpt>
<trkpt lat="31.6385700" lon="34.8860000">
<ele>257.000000</ele>
<time>2020-09-06T02:33:57.000Z</time>
</trkpt>
<trkpt lat="31.6386600" lon="34.8857700">
<ele>257.000000</ele>
<time>2020-09-06T02:34:15.000Z</time>
</trkpt>
<trkpt lat="31.6387400" lon="34.8850600">
<ele>257.000000</ele>
<time>2020-09-06T02:35:02.000Z</time>
</trkpt>
<trkpt lat="31.6387700" lon="34.8849800">
<ele>256.000000</ele>
<time>2020-09-06T02:35:08.000Z</time>
</trkpt>
<trkpt lat="31.6388100" lon="34.8849200">
<ele>256.000000</ele>
<time>2020-09-06T02:35:13.000Z</time>
</trkpt>
<trkpt lat="31.6388800" lon="34.8848900">
<ele>256.000000</ele>
<time>2020-09-06T02:35:19.000Z</time>
</trkpt>
<trkpt lat="31.6391300" lon="34.8848400">
<ele>255.000000</ele>
<time>2020-09-06T02:35:39.000Z</time>
</trkpt>
<trkpt lat="31.6393400" lon="34.8847700">
<ele>255.000000</ele>
<time>2020-09-06T02:35:56.000Z</time>
</trkpt>
<trkpt lat="31.6396900" lon="34.8846800">
<ele>256.000000</ele>
<time>2020-09-06T02:36:25.000Z</time>
</trkpt>
<trkpt lat="31.6399000" lon="34.8846800">
<ele>256.000000</ele>
<time>2020-09-06T02:36:42.000Z</time>
</trkpt>
<trkpt lat="31.6399700" lon="34.8846500">
<ele>256.000000</ele>
<time>2020-09-06T02:36:48.000Z</time>
</trkpt>
<trkpt lat="31.6405100" lon="34.8846000">
<ele>256.000000</ele>
<time>2020-09-06T02:37:31.000Z</time>
</trkpt>
<trkpt lat="31.6408100" lon="34.8845000">
<ele>256.000000</ele>
<time>2020-09-06T02:37:59.000Z</time>
</trkpt>
<trkpt lat="31.6411000" lon="34.8844300">
<ele>257.000000</ele>
<time>2020-09-06T02:38:27.000Z</time>
</trkpt>
<trkpt lat="31.6413700" lon="34.8843100">
<ele>258.000000</ele>
<time>2020-09-06T02:38:55.000Z</time>
</trkpt>
<trkpt lat="31.6414800" lon="34.8843000">
<ele>259.000000</ele>
<time>2020-09-06T02:39:06.000Z</time>
</trkpt>
<trkpt lat="31.6416400" lon="34.8842000">
<ele>260.000000</ele>
<time>2020-09-06T02:39:24.000Z</time>
</trkpt>
<trkpt lat="31.6419100" lon="34.8840900">
<ele>261.000000</ele>
<time>2020-09-06T02:39:53.000Z</time>
</trkpt>
<trkpt lat="31.6422300" lon="34.8840000">
<ele>261.000000</ele>
<time>2020-09-06T02:40:24.000Z</time>
</trkpt>
<trkpt lat="31.6426700" lon="34.8838500">
<ele>261.000000</ele>
<time>2020-09-06T02:41:01.000Z</time>
</trkpt>
<trkpt lat="31.6429700" lon="34.8837000">
<ele>261.000000</ele>
<time>2020-09-06T02:41:27.000Z</time>
</trkpt>
<trkpt lat="31.6431900" lon="34.8835500">
<ele>260.000000</ele>
<time>2020-09-06T02:41:47.000Z</time>
</trkpt>
<trkpt lat="31.6432700" lon="34.8834100">
<ele>259.000000</ele>
<time>2020-09-06T02:41:58.000Z</time>
</trkpt>
<trkpt lat="31.6432800" lon="34.8833100">
<ele>259.000000</ele>
<time>2020-09-06T02:42:05.000Z</time>
</trkpt>
<trkpt lat="31.6433000" lon="34.8836000">
<ele>260.000000</ele>
<time>2020-09-06T02:42:24.000Z</time>
</trkpt>
<trkpt lat="31.6446300" lon="34.8826500">
<ele>250.000000</ele>
<time>2020-09-06T02:44:10.000Z</time>
</trkpt>
<trkpt lat="31.6448500" lon="34.8827300">
<ele>249.000000</ele>
<time>2020-09-06T02:44:27.000Z</time>
</trkpt>
<trkpt lat="31.6449100" lon="34.8832100">
<ele>250.000000</ele>
<time>2020-09-06T02:45:01.000Z</time>
</trkpt>
<trkpt lat="31.6460300" lon="34.8850400">
<ele>235.000000</ele>
<time>2020-09-06T02:47:04.000Z</time>
</trkpt>
<trkpt lat="31.6461600" lon="34.8852600">
<ele>232.999985</ele>
<time>2020-09-06T02:47:20.000Z</time>
</trkpt>
<trkpt lat="31.6462900" lon="34.8857800">
<ele>230.000000</ele>
<time>2020-09-06T02:47:51.000Z</time>
</trkpt>
<trkpt lat="31.6463300" lon="34.8857700">
<ele>230.000000</ele>
<time>2020-09-06T02:47:54.000Z</time>
</trkpt>
<trkpt lat="31.6463600" lon="34.8857800">
<ele>230.000000</ele>
<time>2020-09-06T02:47:57.000Z</time>
</trkpt>
<trkpt lat="31.6463800" lon="34.8858200">
<ele>229.000000</ele>
<time>2020-09-06T02:48:01.000Z</time>
</trkpt>
<trkpt lat="31.6464400" lon="34.8860700">
<ele>230.000000</ele>
<time>2020-09-06T02:48:23.000Z</time>
</trkpt>
<trkpt lat="31.6464900" lon="34.8862200">
<ele>231.000000</ele>
<time>2020-09-06T02:48:37.000Z</time>
</trkpt>
<trkpt lat="31.6467800" lon="34.8869000">
<ele>236.000000</ele>
<time>2020-09-06T02:49:54.000Z</time>
</trkpt>
<trkpt lat="31.6471500" lon="34.8876300">
<ele>243.000000</ele>
<time>2020-09-06T02:51:31.000Z</time>
</trkpt>
<trkpt lat="31.6473300" lon="34.8878900">
<ele>244.000015</ele>
<time>2020-09-06T02:52:02.000Z</time>
</trkpt>
<trkpt lat="31.6474600" lon="34.8879700">
<ele>245.000000</ele>
<time>2020-09-06T02:52:18.000Z</time>
</trkpt>
<trkpt lat="31.6476600" lon="34.8880600">
<ele>246.000000</ele>
<time>2020-09-06T02:52:41.000Z</time>
</trkpt>
<trkpt lat="31.6478100" lon="34.8881500">
<ele>247.000000</ele>
<time>2020-09-06T02:52:58.000Z</time>
</trkpt>
<trkpt lat="31.6480100" lon="34.8883300">
<ele>247.000000</ele>
<time>2020-09-06T02:53:24.000Z</time>
</trkpt>
<trkpt lat="31.6481200" lon="34.8883700">
<ele>248.000000</ele>
<time>2020-09-06T02:53:36.000Z</time>
</trkpt>
<trkpt lat="31.6484800" lon="34.8887100">
<ele>249.000000</ele>
<time>2020-09-06T02:54:17.000Z</time>
</trkpt>
<trkpt lat="31.6486400" lon="34.8888300">
<ele>249.000000</ele>
<time>2020-09-06T02:54:31.000Z</time>
</trkpt>
<trkpt lat="31.6486900" lon="34.8888600">
<ele>248.000000</ele>
<time>2020-09-06T02:54:36.000Z</time>
</trkpt>
<trkpt lat="31.6487600" lon="34.8888700">
<ele>248.000000</ele>
<time>2020-09-06T02:54:41.000Z</time>
</trkpt>
<trkpt lat="31.6490500" lon="34.8890300">
<ele>246.000000</ele>
<time>2020-09-06T02:55:05.000Z</time>
</trkpt>
<trkpt lat="31.6495200" lon="34.8894200">
<ele>242.000000</ele>
<time>2020-09-06T02:55:43.000Z</time>
</trkpt>
<trkpt lat="31.6495600" lon="34.8894300">
<ele>242.000000</ele>
<time>2020-09-06T02:55:45.000Z</time>
</trkpt>
<trkpt lat="31.6496100" lon="34.8894800">
<ele>242.000000</ele>
<time>2020-09-06T02:55:50.000Z</time>
</trkpt>
<trkpt lat="31.6497100" lon="34.8895300">
<ele>241.000000</ele>
<time>2020-09-06T02:55:57.000Z</time>
</trkpt>
<trkpt lat="31.6498300" lon="34.8896300">
<ele>239.000000</ele>
<time>2020-09-06T02:56:06.000Z</time>
</trkpt>
<trkpt lat="31.6500200" lon="34.8898100">
<ele>237.000015</ele>
<time>2020-09-06T02:56:20.000Z</time>
</trkpt>
<trkpt lat="31.6500600" lon="34.8898200">
<ele>237.000015</ele>
<time>2020-09-06T02:56:23.000Z</time>
</trkpt>
<trkpt lat="31.6502100" lon="34.8899300">
<ele>235.000000</ele>
<time>2020-09-06T02:56:34.000Z</time>
</trkpt>
<trkpt lat="31.6502700" lon="34.8899600">
<ele>234.000000</ele>
<time>2020-09-06T02:56:38.000Z</time>
</trkpt>
<trkpt lat="31.6503300" lon="34.8900100">
<ele>234.000000</ele>
<time>2020-09-06T02:56:42.000Z</time>
</trkpt>
<trkpt lat="31.6504300" lon="34.8900600">
<ele>232.999985</ele>
<time>2020-09-06T02:56:49.000Z</time>
</trkpt>
<trkpt lat="31.6505400" lon="34.8901600">
<ele>231.000000</ele>
<time>2020-09-06T02:56:58.000Z</time>
</trkpt>
<trkpt lat="31.6507400" lon="34.8904100">
<ele>228.000000</ele>
<time>2020-09-06T02:57:16.000Z</time>
</trkpt>
<trkpt lat="31.6509200" lon="34.8905400">
<ele>227.000000</ele>
<time>2020-09-06T02:57:29.000Z</time>
</trkpt>
<trkpt lat="31.6510300" lon="34.8905700">
<ele>225.999985</ele>
<time>2020-09-06T02:57:37.000Z</time>
</trkpt>
<trkpt lat="31.6511100" lon="34.8906500">
<ele>225.999985</ele>
<time>2020-09-06T02:57:45.000Z</time>
</trkpt>
<trkpt lat="31.6512000" lon="34.8908200">
<ele>225.000000</ele>
<time>2020-09-06T02:57:58.000Z</time>
</trkpt>
<trkpt lat="31.6511300" lon="34.8908500">
<ele>225.000000</ele>
<time>2020-09-06T02:58:04.000Z</time>
</trkpt>
<trkpt lat="31.6509600" lon="34.8909800">
<ele>225.000000</ele>
<time>2020-09-06T02:58:20.000Z</time>
</trkpt>
<trkpt lat="31.6508600" lon="34.8910900">
<ele>225.000000</ele>
<time>2020-09-06T02:58:30.000Z</time>
</trkpt>
<trkpt lat="31.6507700" lon="34.8912400">
<ele>225.999985</ele>
<time>2020-09-06T02:58:43.000Z</time>
</trkpt>
<trkpt lat="31.6506800" lon="34.8914100">
<ele>225.999985</ele>
<time>2020-09-06T02:59:01.000Z</time>
</trkpt>
<trkpt lat="31.6506400" lon="34.8915100">
<ele>227.000000</ele>
<time>2020-09-06T02:59:10.000Z</time>
</trkpt>
<trkpt lat="31.6505700" lon="34.8918400">
<ele>228.000000</ele>
<time>2020-09-06T02:59:40.000Z</time>
</trkpt>
<trkpt lat="31.6505500" lon="34.8925500">
<ele>230.000000</ele>
<time>2020-09-06T03:00:41.000Z</time>
</trkpt>
<trkpt lat="31.6505900" lon="34.8929500">
<ele>231.000000</ele>
<time>2020-09-06T03:01:16.000Z</time>
</trkpt>
<trkpt lat="31.6505600" lon="34.8936800">
<ele>232.000000</ele>
<time>2020-09-06T03:02:11.000Z</time>
</trkpt>
<trkpt lat="31.6505000" lon="34.8942600">
<ele>232.000000</ele>
<time>2020-09-06T03:02:58.000Z</time>
</trkpt>
<trkpt lat="31.6503700" lon="34.8946000">
<ele>234.000000</ele>
<time>2020-09-06T03:03:30.000Z</time>
</trkpt>
<trkpt lat="31.6503100" lon="34.8947400">
<ele>234.000000</ele>
<time>2020-09-06T03:03:43.000Z</time>
</trkpt>
<trkpt lat="31.6495900" lon="34.8957400">
<ele>238.000000</ele>
<time>2020-09-06T03:05:35.000Z</time>
</trkpt>
<trkpt lat="31.6495100" lon="34.8958800">
<ele>238.000000</ele>
<time>2020-09-06T03:05:48.000Z</time>
</trkpt>
<trkpt lat="31.6494000" lon="34.8959800">
<ele>239.000000</ele>
<time>2020-09-06T03:06:01.000Z</time>
</trkpt>
<trkpt lat="31.6493000" lon="34.8960100">
<ele>239.000000</ele>
<time>2020-09-06T03:06:11.000Z</time>
</trkpt>
<trkpt lat="31.6490700" lon="34.8960600">
<ele>240.000000</ele>
<time>2020-09-06T03:06:33.000Z</time>
</trkpt>
<trkpt lat="31.6487200" lon="34.8958700">
<ele>240.000000</ele>
<time>2020-09-06T03:07:07.000Z</time>
</trkpt>
<trkpt lat="31.6485600" lon="34.8958700">
<ele>241.000000</ele>
<time>2020-09-06T03:07:21.000Z</time>
</trkpt>
<trkpt lat="31.6482600" lon="34.8958900">
<ele>241.000000</ele>
<time>2020-09-06T03:07:47.000Z</time>
</trkpt>
<trkpt lat="31.6479300" lon="34.8960500">
<ele>243.000000</ele>
<time>2020-09-06T03:08:21.000Z</time>
</trkpt>
<trkpt lat="31.6478400" lon="34.8961100">
<ele>243.000000</ele>
<time>2020-09-06T03:08:31.000Z</time>
</trkpt>
<trkpt lat="31.6478300" lon="34.8961400">
<ele>243.000000</ele>
<time>2020-09-06T03:08:33.000Z</time>
</trkpt>
<trkpt lat="31.6476300" lon="34.8964300">
<ele>243.000000</ele>
<time>2020-09-06T03:09:03.000Z</time>
</trkpt>
<trkpt lat="31.6471700" lon="34.8971800">
<ele>246.000000</ele>
<time>2020-09-06T03:10:23.000Z</time>
</trkpt>
<trkpt lat="31.6467600" lon="34.8976900">
<ele>248.000000</ele>
<time>2020-09-06T03:11:24.000Z</time>
</trkpt>
<trkpt lat="31.6467400" lon="34.8977100">
<ele>248.000000</ele>
<time>2020-09-06T03:11:26.000Z</time>
</trkpt>
<trkpt lat="31.6465300" lon="34.8980200">
<ele>250.000000</ele>
<time>2020-09-06T03:12:01.000Z</time>
</trkpt>
<trkpt lat="31.6464300" lon="34.8981200">
<ele>250.999985</ele>
<time>2020-09-06T03:12:14.000Z</time>
</trkpt>
<trkpt lat="31.6461200" lon="34.8983700">
<ele>250.999985</ele>
<time>2020-09-06T03:12:52.000Z</time>
</trkpt>
<trkpt lat="31.6458900" lon="34.8985000">
<ele>252.000000</ele>
<time>2020-09-06T03:13:19.000Z</time>
</trkpt>
<trkpt lat="31.6452100" lon="34.8989000">
<ele>257.000000</ele>
<time>2020-09-06T03:14:42.000Z</time>
</trkpt>
<trkpt lat="31.6445400" lon="34.8993400">
<ele>261.000000</ele>
<time>2020-09-06T03:16:09.000Z</time>
</trkpt>
<trkpt lat="31.6437900" lon="34.8999000">
<ele>263.000000</ele>
<time>2020-09-06T03:17:33.000Z</time>
</trkpt>
<trkpt lat="31.6435600" lon="34.9000800">
<ele>263.000000</ele>
<time>2020-09-06T03:17:59.000Z</time>
</trkpt>
<trkpt lat="31.6428200" lon="34.9008000">
<ele>266.000000</ele>
<time>2020-09-06T03:19:30.000Z</time>
</trkpt>
<trkpt lat="31.6430700" lon="34.9012500">
<ele>268.000000</ele>
<time>2020-09-06T03:20:18.000Z</time>
</trkpt>
<trkpt lat="31.6431000" lon="34.9013900">
<ele>269.000000</ele>
<time>2020-09-06T03:20:33.000Z</time>
</trkpt>
<trkpt lat="31.6431000" lon="34.9014700">
<ele>269.000000</ele>
<time>2020-09-06T03:20:42.000Z</time>
</trkpt>
<trkpt lat="31.6430600" lon="34.9016800">
<ele>270.000000</ele>
<time>2020-09-06T03:21:04.000Z</time>
</trkpt>
<trkpt lat="31.6429900" lon="34.9019400">
<ele>273.000000</ele>
<time>2020-09-06T03:21:33.000Z</time>
</trkpt>
<trkpt lat="31.6426500" lon="34.9029200">
<ele>279.000000</ele>
<time>2020-09-06T03:23:22.000Z</time>
</trkpt>
<trkpt lat="31.6426300" lon="34.9031700">
<ele>281.000000</ele>
<time>2020-09-06T03:23:47.000Z</time>
</trkpt>
<trkpt lat="31.6426600" lon="34.9034000">
<ele>282.000000</ele>
<time>2020-09-06T03:24:10.000Z</time>
</trkpt>
<trkpt lat="31.6428400" lon="34.9041400">
<ele>286.000000</ele>
<time>2020-09-06T03:25:28.000Z</time>
</trkpt>
<trkpt lat="31.6429300" lon="34.9043500">
<ele>288.000000</ele>
<time>2020-09-06T03:25:52.000Z</time>
</trkpt>
<trkpt lat="31.6430900" lon="34.9046000">
<ele>290.000000</ele>
<time>2020-09-06T03:26:25.000Z</time>
</trkpt>
<trkpt lat="31.6432100" lon="34.9046900">
<ele>290.000000</ele>
<time>2020-09-06T03:26:39.000Z</time>
</trkpt>
<trkpt lat="31.6433500" lon="34.9047700">
<ele>291.000000</ele>
<time>2020-09-06T03:26:53.000Z</time>
</trkpt>
<trkpt lat="31.6437600" lon="34.9048600">
<ele>292.000000</ele>
<time>2020-09-06T03:27:33.000Z</time>
</trkpt>
<trkpt lat="31.6438900" lon="34.9049200">
<ele>292.000000</ele>
<time>2020-09-06T03:27:45.000Z</time>
</trkpt>
<trkpt lat="31.6445100" lon="34.9054000">
<ele>288.000000</ele>
<time>2020-09-06T03:28:37.000Z</time>
</trkpt>
<trkpt lat="31.6446900" lon="34.9055100">
<ele>286.000000</ele>
<time>2020-09-06T03:28:51.000Z</time>
</trkpt>
<trkpt lat="31.6447800" lon="34.9055400">
<ele>285.000000</ele>
<time>2020-09-06T03:28:57.000Z</time>
</trkpt>
<trkpt lat="31.6448200" lon="34.9055500">
<ele>285.000000</ele>
<time>2020-09-06T03:29:00.000Z</time>
</trkpt>
<trkpt lat="31.6449100" lon="34.9055300">
<ele>284.000000</ele>
<time>2020-09-06T03:29:06.000Z</time>
</trkpt>
<trkpt lat="31.6449800" lon="34.9055000">
<ele>284.000000</ele>
<time>2020-09-06T03:29:11.000Z</time>
</trkpt>
<trkpt lat="31.6459300" lon="34.9049200">
<ele>279.000000</ele>
<time>2020-09-06T03:30:24.000Z</time>
</trkpt>
<trkpt lat="31.6463000" lon="34.9046600">
<ele>276.000000</ele>
<time>2020-09-06T03:30:54.000Z</time>
</trkpt>
<trkpt lat="31.6463800" lon="34.9046000">
<ele>275.000000</ele>
<time>2020-09-06T03:31:00.000Z</time>
</trkpt>
<trkpt lat="31.6467300" lon="34.9044500">
<ele>273.000000</ele>
<time>2020-09-06T03:31:25.000Z</time>
</trkpt>
<trkpt lat="31.6467700" lon="34.9043500">
<ele>272.000000</ele>
<time>2020-09-06T03:31:32.000Z</time>
</trkpt>
<trkpt lat="31.6471900" lon="34.9040000">
<ele>271.000000</ele>
<time>2020-09-06T03:32:10.000Z</time>
</trkpt>
<trkpt lat="31.6476900" lon="34.9036900">
<ele>269.000000</ele>
<time>2020-09-06T03:32:51.000Z</time>
</trkpt>
<trkpt lat="31.6479700" lon="34.9036100">
<ele>267.000000</ele>
<time>2020-09-06T03:33:12.000Z</time>
</trkpt>
<trkpt lat="31.6485400" lon="34.9035500">
<ele>264.000000</ele>
<time>2020-09-06T03:33:53.000Z</time>
</trkpt>
<trkpt lat="31.6487800" lon="34.9035600">
<ele>263.000000</ele>
<time>2020-09-06T03:34:10.000Z</time>
</trkpt>
<trkpt lat="31.6488800" lon="34.9035700">
<ele>263.000000</ele>
<time>2020-09-06T03:34:17.000Z</time>
</trkpt>
<trkpt lat="31.6490100" lon="34.9036400">
<ele>262.000000</ele>
<time>2020-09-06T03:34:27.000Z</time>
</trkpt>
<trkpt lat="31.6492400" lon="34.9037900">
<ele>261.000000</ele>
<time>2020-09-06T03:34:47.000Z</time>
</trkpt>
<trkpt lat="31.6494100" lon="34.9038400">
<ele>261.000000</ele>
<time>2020-09-06T03:35:00.000Z</time>
</trkpt>
<trkpt lat="31.6495700" lon="34.9038400">
<ele>261.000000</ele>
<time>2020-09-06T03:35:12.000Z</time>
</trkpt>
<trkpt lat="31.6496500" lon="34.9038200">
<ele>261.000000</ele>
<time>2020-09-06T03:35:19.000Z</time>
</trkpt>
<trkpt lat="31.6504700" lon="34.9036400">
<ele>258.000000</ele>
<time>2020-09-06T03:36:19.000Z</time>
</trkpt>
<trkpt lat="31.6506400" lon="34.9036300">
<ele>258.000000</ele>
<time>2020-09-06T03:36:33.000Z</time>
</trkpt>
<trkpt lat="31.6511400" lon="34.9036400">
<ele>257.000000</ele>
<time>2020-09-06T03:37:13.000Z</time>
</trkpt>
<trkpt lat="31.6512500" lon="34.9036800">
<ele>258.000000</ele>
<time>2020-09-06T03:37:22.000Z</time>
</trkpt>
<trkpt lat="31.6513900" lon="34.9037700">
<ele>258.000000</ele>
<time>2020-09-06T03:37:37.000Z</time>
</trkpt>
<trkpt lat="31.6518500" lon="34.9041300">
<ele>260.000000</ele>
<time>2020-09-06T03:38:29.000Z</time>
</trkpt>
<trkpt lat="31.6519300" lon="34.9041600">
<ele>260.000000</ele>
<time>2020-09-06T03:38:37.000Z</time>
</trkpt>
<trkpt lat="31.6520400" lon="34.9041800">
<ele>260.000000</ele>
<time>2020-09-06T03:38:48.000Z</time>
</trkpt>
<trkpt lat="31.6526300" lon="34.9041400">
<ele>261.000000</ele>
<time>2020-09-06T03:39:44.000Z</time>
</trkpt>
<trkpt lat="31.6530600" lon="34.9040200">
<ele>265.000000</ele>
<time>2020-09-06T03:40:36.000Z</time>
</trkpt>
<trkpt lat="31.6534400" lon="34.9040100">
<ele>268.000000</ele>
<time>2020-09-06T03:41:25.000Z</time>
</trkpt>
<trkpt lat="31.6538100" lon="34.9039600">
<ele>270.000000</ele>
<time>2020-09-06T03:42:03.000Z</time>
</trkpt>
<trkpt lat="31.6539500" lon="34.9039100">
<ele>270.000000</ele>
<time>2020-09-06T03:42:16.000Z</time>
</trkpt>
<trkpt lat="31.6541300" lon="34.9037400">
<ele>271.000000</ele>
<time>2020-09-06T03:42:36.000Z</time>
</trkpt>
<trkpt lat="31.6542000" lon="34.9036600">
<ele>271.000000</ele>
<time>2020-09-06T03:42:44.000Z</time>
</trkpt>
<trkpt lat="31.6548500" lon="34.9028200">
<ele>264.000000</ele>
<time>2020-09-06T03:43:52.000Z</time>
</trkpt>
<trkpt lat="31.6557000" lon="34.9014300">
<ele>257.000000</ele>
<time>2020-09-06T03:45:34.000Z</time>
</trkpt>
<trkpt lat="31.6558100" lon="34.9013100">
<ele>257.000000</ele>
<time>2020-09-06T03:45:45.000Z</time>
</trkpt>
<trkpt lat="31.6563200" lon="34.9008500">
<ele>253.000000</ele>
<time>2020-09-06T03:46:30.000Z</time>
</trkpt>
<trkpt lat="31.6570100" lon="34.9003300">
<ele>250.000000</ele>
<time>2020-09-06T03:47:30.000Z</time>
</trkpt>
<trkpt lat="31.6570800" lon="34.9002600">
<ele>250.000000</ele>
<time>2020-09-06T03:47:36.000Z</time>
</trkpt>
<trkpt lat="31.6571600" lon="34.9001400">
<ele>249.000000</ele>
<time>2020-09-06T03:47:45.000Z</time>
</trkpt>
<trkpt lat="31.6575700" lon="34.8993200">
<ele>245.000000</ele>
<time>2020-09-06T03:48:42.000Z</time>
</trkpt>
<trkpt lat="31.6579700" lon="34.8983100">
<ele>243.000000</ele>
<time>2020-09-06T03:49:53.000Z</time>
</trkpt>
<trkpt lat="31.6581400" lon="34.8979800">
<ele>241.000000</ele>
<time>2020-09-06T03:50:15.000Z</time>
</trkpt>
<trkpt lat="31.6582100" lon="34.8978800">
<ele>240.000000</ele>
<time>2020-09-06T03:50:22.000Z</time>
</trkpt>
<trkpt lat="31.6591000" lon="34.8970100">
<ele>235.000000</ele>
<time>2020-09-06T03:51:46.000Z</time>
</trkpt>
<trkpt lat="31.6594800" lon="34.8965600">
<ele>231.000000</ele>
<time>2020-09-06T03:52:22.000Z</time>
</trkpt>
<trkpt lat="31.6595700" lon="34.8964700">
<ele>231.000000</ele>
<time>2020-09-06T03:52:30.000Z</time>
</trkpt>
<trkpt lat="31.6597900" lon="34.8963000">
<ele>229.000000</ele>
<time>2020-09-06T03:52:50.000Z</time>
</trkpt>
<trkpt lat="31.6599700" lon="34.8961100">
<ele>228.000000</ele>
<time>2020-09-06T03:53:07.000Z</time>
</trkpt>
<trkpt lat="31.6600200" lon="34.8961800">
<ele>228.000000</ele>
<time>2020-09-06T03:53:13.000Z</time>
</trkpt>
<trkpt lat="31.6603100" lon="34.8965000">
<ele>229.000000</ele>
<time>2020-09-06T03:53:50.000Z</time>
</trkpt>
<trkpt lat="31.6607500" lon="34.8971100">
<ele>232.000000</ele>
<time>2020-09-06T03:55:01.000Z</time>
</trkpt>
<trkpt lat="31.6612700" lon="34.8978500">
<ele>237.000015</ele>
<time>2020-09-06T03:56:31.000Z</time>
</trkpt>
<trkpt lat="31.6615800" lon="34.8984100">
<ele>237.000015</ele>
<time>2020-09-06T03:57:20.000Z</time>
</trkpt>
<trkpt lat="31.6616700" lon="34.8987400">
<ele>237.000015</ele>
<time>2020-09-06T03:57:49.000Z</time>
</trkpt>
<trkpt lat="31.6617600" lon="34.8994700">
<ele>240.000000</ele>
<time>2020-09-06T03:58:52.000Z</time>
</trkpt>
<trkpt lat="31.6617800" lon="34.8997100">
<ele>241.000000</ele>
<time>2020-09-06T03:59:12.000Z</time>
</trkpt>
<trkpt lat="31.6618400" lon="34.9002400">
<ele>242.000000</ele>
<time>2020-09-06T03:59:55.000Z</time>
</trkpt>
<trkpt lat="31.6618400" lon="34.9008900">
<ele>242.000000</ele>
<time>2020-09-06T04:00:44.000Z</time>
</trkpt>
<trkpt lat="31.6620100" lon="34.9008700">
<ele>243.000000</ele>
<time>2020-09-06T04:00:59.000Z</time>
</trkpt>
<trkpt lat="31.6621500" lon="34.9008900">
<ele>243.000000</ele>
<time>2020-09-06T04:01:11.000Z</time>
</trkpt>
<trkpt lat="31.6624000" lon="34.9008900">
<ele>243.000000</ele>
<time>2020-09-06T04:01:40.000Z</time>
</trkpt>
<trkpt lat="31.6625800" lon="34.9009100">
<ele>245.000000</ele>
<time>2020-09-06T04:02:02.000Z</time>
</trkpt>
<trkpt lat="31.6626500" lon="34.9008900">
<ele>245.000000</ele>
<time>2020-09-06T04:02:11.000Z</time>
</trkpt>
<trkpt lat="31.6628000" lon="34.9007600">
<ele>247.000000</ele>
<time>2020-09-06T04:02:33.000Z</time>
</trkpt>
<trkpt lat="31.6628300" lon="34.9007800">
<ele>247.000000</ele>
<time>2020-09-06T04:02:38.000Z</time>
</trkpt>
<trkpt lat="31.6628800" lon="34.9008400">
<ele>248.000000</ele>
<time>2020-09-06T04:02:46.000Z</time>
</trkpt>
<trkpt lat="31.6629100" lon="34.9009600">
<ele>249.000000</ele>
<time>2020-09-06T04:03:00.000Z</time>
</trkpt>
<trkpt lat="31.6629300" lon="34.9010000">
<ele>250.000000</ele>
<time>2020-09-06T04:03:05.000Z</time>
</trkpt>
<trkpt lat="31.6630000" lon="34.9010300">
<ele>250.999985</ele>
<time>2020-09-06T04:03:14.000Z</time>
</trkpt>
<trkpt lat="31.6631800" lon="34.9010200">
<ele>253.000000</ele>
<time>2020-09-06T04:03:38.000Z</time>
</trkpt>
<trkpt lat="31.6633500" lon="34.9010800">
<ele>255.000000</ele>
<time>2020-09-06T04:04:01.000Z</time>
</trkpt>
<trkpt lat="31.6635300" lon="34.9010600">
<ele>255.000000</ele>
<time>2020-09-06T04:04:24.000Z</time>
</trkpt>
<trkpt lat="31.6637100" lon="34.9011000">
<ele>256.000000</ele>
<time>2020-09-06T04:04:46.000Z</time>
</trkpt>
<trkpt lat="31.6637700" lon="34.9011400">
<ele>256.000000</ele>
<time>2020-09-06T04:04:53.000Z</time>
</trkpt>
<trkpt lat="31.6638400" lon="34.9012400">
<ele>257.000000</ele>
<time>2020-09-06T04:05:04.000Z</time>
</trkpt>
<trkpt lat="31.6640100" lon="34.9013900">
<ele>258.000000</ele>
<time>2020-09-06T04:05:26.000Z</time>
</trkpt>
<trkpt lat="31.6641500" lon="34.9015300">
<ele>259.000000</ele>
<time>2020-09-06T04:05:44.000Z</time>
</trkpt>
<trkpt lat="31.6641800" lon="34.9015400">
<ele>259.000000</ele>
<time>2020-09-06T04:05:48.000Z</time>
</trkpt>
<trkpt lat="31.6643100" lon="34.9016200">
<ele>259.000000</ele>
<time>2020-09-06T04:06:02.000Z</time>
</trkpt>
<trkpt lat="31.6644100" lon="34.9017400">
<ele>258.000000</ele>
<time>2020-09-06T04:06:11.000Z</time>
</trkpt>
<trkpt lat="31.6645400" lon="34.9018100">
<ele>258.000000</ele>
<time>2020-09-06T04:06:21.000Z</time>
</trkpt>
<trkpt lat="31.6647900" lon="34.9018100">
<ele>256.000000</ele>
<time>2020-09-06T04:06:37.000Z</time>
</trkpt>
<trkpt lat="31.6648900" lon="34.9017800">
<ele>255.000000</ele>
<time>2020-09-06T04:06:44.000Z</time>
</trkpt>
<trkpt lat="31.6652500" lon="34.9017300">
<ele>252.000000</ele>
<time>2020-09-06T04:07:08.000Z</time>
</trkpt>
<trkpt lat="31.6654600" lon="34.9016600">
<ele>250.000000</ele>
<time>2020-09-06T04:07:22.000Z</time>
</trkpt>
<trkpt lat="31.6655300" lon="34.9016600">
<ele>249.000000</ele>
<time>2020-09-06T04:07:27.000Z</time>
</trkpt>
<trkpt lat="31.6656800" lon="34.9016900">
<ele>248.000000</ele>
<time>2020-09-06T04:07:37.000Z</time>
</trkpt>
<trkpt lat="31.6658600" lon="34.9016900">
<ele>247.000000</ele>
<time>2020-09-06T04:07:49.000Z</time>
</trkpt>
<trkpt lat="31.6660600" lon="34.9016100">
<ele>246.000000</ele>
<time>2020-09-06T04:08:03.000Z</time>
</trkpt>
<trkpt lat="31.6661200" lon="34.9015600">
<ele>246.000000</ele>
<time>2020-09-06T04:08:09.000Z</time>
</trkpt>
<trkpt lat="31.6661500" lon="34.9014800">
<ele>245.000000</ele>
<time>2020-09-06T04:08:14.000Z</time>
</trkpt>
<trkpt lat="31.6661400" lon="34.9014000">
<ele>245.000000</ele>
<time>2020-09-06T04:08:19.000Z</time>
</trkpt>
<trkpt lat="31.6660900" lon="34.9012800">
<ele>245.000000</ele>
<time>2020-09-06T04:08:27.000Z</time>
</trkpt>
<trkpt lat="31.6661100" lon="34.9012000">
<ele>244.000015</ele>
<time>2020-09-06T04:08:32.000Z</time>
</trkpt>
<trkpt lat="31.6661900" lon="34.9010600">
<ele>244.000015</ele>
<time>2020-09-06T04:08:42.000Z</time>
</trkpt>
<trkpt lat="31.6663200" lon="34.9009200">
<ele>243.000000</ele>
<time>2020-09-06T04:08:57.000Z</time>
</trkpt>
<trkpt lat="31.6663900" lon="34.9008800">
<ele>242.000000</ele>
<time>2020-09-06T04:09:03.000Z</time>
</trkpt>
<trkpt lat="31.6664900" lon="34.9008800">
<ele>242.000000</ele>
<time>2020-09-06T04:09:12.000Z</time>
</trkpt>
<trkpt lat="31.6667300" lon="34.9009700">
<ele>242.000000</ele>
<time>2020-09-06T04:09:34.000Z</time>
</trkpt>
<trkpt lat="31.6669500" lon="34.9010200">
<ele>243.000000</ele>
<time>2020-09-06T04:09:54.000Z</time>
</trkpt>
<trkpt lat="31.6670900" lon="34.9010300">
<ele>244.000015</ele>
<time>2020-09-06T04:10:06.000Z</time>
</trkpt>
<trkpt lat="31.6672600" lon="34.9010800">
<ele>245.000000</ele>
<time>2020-09-06T04:10:21.000Z</time>
</trkpt>
<trkpt lat="31.6673200" lon="34.9000300">
<ele>245.000000</ele>
<time>2020-09-06T04:11:36.000Z</time>
</trkpt>
<trkpt lat="31.6673700" lon="34.8996500">
<ele>245.000000</ele>
<time>2020-09-06T04:12:03.000Z</time>
</trkpt>
<trkpt lat="31.6676300" lon="34.8989900">
<ele>246.000000</ele>
<time>2020-09-06T04:12:52.000Z</time>
</trkpt>
<trkpt lat="31.6683500" lon="34.8977700">
<ele>238.000000</ele>
<time>2020-09-06T04:14:19.000Z</time>
</trkpt>
<trkpt lat="31.6684000" lon="34.8976400">
<ele>237.000015</ele>
<time>2020-09-06T04:14:27.000Z</time>
</trkpt>
<trkpt lat="31.6682700" lon="34.8969400">
<ele>232.000000</ele>
<time>2020-09-06T04:15:08.000Z</time>
</trkpt>
<trkpt lat="31.6682500" lon="34.8968100">
<ele>231.000000</ele>
<time>2020-09-06T04:15:15.000Z</time>
</trkpt>
<trkpt lat="31.6682900" lon="34.8966100">
<ele>230.000000</ele>
<time>2020-09-06T04:15:27.000Z</time>
</trkpt>
<trkpt lat="31.6684500" lon="34.8963400">
<ele>228.000000</ele>
<time>2020-09-06T04:15:46.000Z</time>
</trkpt>
<trkpt lat="31.6689500" lon="34.8957600">
<ele>227.000000</ele>
<time>2020-09-06T04:16:41.000Z</time>
</trkpt>
<trkpt lat="31.6691100" lon="34.8955300">
<ele>228.000000</ele>
<time>2020-09-06T04:17:01.000Z</time>
</trkpt>
<trkpt lat="31.6691500" lon="34.8953700">
<ele>228.000000</ele>
<time>2020-09-06T04:17:12.000Z</time>
</trkpt>
<trkpt lat="31.6691200" lon="34.8952300">
<ele>228.000000</ele>
<time>2020-09-06T04:17:22.000Z</time>
</trkpt>
<trkpt lat="31.6689100" lon="34.8949100">
<ele>227.000000</ele>
<time>2020-09-06T04:17:48.000Z</time>
</trkpt>
<trkpt lat="31.6688000" lon="34.8945500">
<ele>227.000000</ele>
<time>2020-09-06T04:18:17.000Z</time>
</trkpt>
<trkpt lat="31.6688200" lon="34.8940800">
<ele>229.000000</ele>
<time>2020-09-06T04:18:57.000Z</time>
</trkpt>
<trkpt lat="31.6689300" lon="34.8933500">
<ele>231.000000</ele>
<time>2020-09-06T04:19:59.000Z</time>
</trkpt>
<trkpt lat="31.6690200" lon="34.8931200">
<ele>231.000000</ele>
<time>2020-09-06T04:20:19.000Z</time>
</trkpt>
<trkpt lat="31.6691400" lon="34.8930100">
<ele>232.000000</ele>
<time>2020-09-06T04:20:33.000Z</time>
</trkpt>
<trkpt lat="31.6694300" lon="34.8928500">
<ele>232.999985</ele>
<time>2020-09-06T04:21:00.000Z</time>
</trkpt>
<trkpt lat="31.6694700" lon="34.8928000">
<ele>232.999985</ele>
<time>2020-09-06T04:21:04.000Z</time>
</trkpt>
<trkpt lat="31.6695400" lon="34.8926400">
<ele>232.999985</ele>
<time>2020-09-06T04:21:16.000Z</time>
</trkpt>
<trkpt lat="31.6695800" lon="34.8923800">
<ele>232.000000</ele>
<time>2020-09-06T04:21:34.000Z</time>
</trkpt>
<trkpt lat="31.6696200" lon="34.8922800">
<ele>231.000000</ele>
<time>2020-09-06T04:21:41.000Z</time>
</trkpt>
<trkpt lat="31.6698300" lon="34.8920200">
<ele>231.000000</ele>
<time>2020-09-06T04:22:05.000Z</time>
</trkpt>
<trkpt lat="31.6698800" lon="34.8919400">
<ele>231.000000</ele>
<time>2020-09-06T04:22:11.000Z</time>
</trkpt>
<trkpt lat="31.6698900" lon="34.8918000">
<ele>230.000000</ele>
<time>2020-09-06T04:22:20.000Z</time>
</trkpt>
<trkpt lat="31.6700000" lon="34.8917200">
<ele>230.000000</ele>
<time>2020-09-06T04:22:31.000Z</time>
</trkpt>
<trkpt lat="31.6701500" lon="34.8914600">
<ele>230.000000</ele>
<time>2020-09-06T04:22:51.000Z</time>
</trkpt>
<trkpt lat="31.6701800" lon="34.8912000">
<ele>230.000000</ele>
<time>2020-09-06T04:23:08.000Z</time>
</trkpt>
<trkpt lat="31.6701400" lon="34.8910700">
<ele>229.000000</ele>
<time>2020-09-06T04:23:17.000Z</time>
</trkpt>
<trkpt lat="31.6701300" lon="34.8908600">
<ele>228.000000</ele>
<time>2020-09-06T04:23:30.000Z</time>
</trkpt>
<trkpt lat="31.6702300" lon="34.8904500">
<ele>229.000000</ele>
<time>2020-09-06T04:23:58.000Z</time>
</trkpt>
<trkpt lat="31.6704300" lon="34.8899700">
<ele>229.000000</ele>
<time>2020-09-06T04:24:35.000Z</time>
</trkpt>
<trkpt lat="31.6704800" lon="34.8891100">
<ele>225.999985</ele>
<time>2020-09-06T04:25:30.000Z</time>
</trkpt>
<trkpt lat="31.6708500" lon="34.8883100">
<ele>223.000000</ele>
<time>2020-09-06T04:26:24.000Z</time>
</trkpt>
<trkpt lat="31.6711300" lon="34.8879200">
<ele>220.000000</ele>
<time>2020-09-06T04:26:56.000Z</time>
</trkpt>
<trkpt lat="31.6712900" lon="34.8877600">
<ele>219.000015</ele>
<time>2020-09-06T04:27:16.000Z</time>
</trkpt>
<trkpt lat="31.6713500" lon="34.8877200">
<ele>219.000015</ele>
<time>2020-09-06T04:27:22.000Z</time>
</trkpt>
<trkpt lat="31.6714400" lon="34.8877400">
<ele>220.000000</ele>
<time>2020-09-06T04:27:31.000Z</time>
</trkpt>
<trkpt lat="31.6716300" lon="34.8879400">
<ele>222.000000</ele>
<time>2020-09-06T04:27:55.000Z</time>
</trkpt>
<trkpt lat="31.6718400" lon="34.8880600">
<ele>222.000000</ele>
<time>2020-09-06T04:28:16.000Z</time>
</trkpt>
<trkpt lat="31.6721700" lon="34.8883500">
<ele>223.000000</ele>
<time>2020-09-06T04:28:52.000Z</time>
</trkpt>
<trkpt lat="31.6723200" lon="34.8884200">
<ele>223.000000</ele>
<time>2020-09-06T04:29:06.000Z</time>
</trkpt>
<trkpt lat="31.6724600" lon="34.8883700">
<ele>222.000000</ele>
<time>2020-09-06T04:29:18.000Z</time>
</trkpt>
<trkpt lat="31.6728000" lon="34.8880700">
<ele>218.000000</ele>
<time>2020-09-06T04:29:46.000Z</time>
</trkpt>
<trkpt lat="31.6729700" lon="34.8877000">
<ele>216.000000</ele>
<time>2020-09-06T04:30:09.000Z</time>
</trkpt>
<trkpt lat="31.6730900" lon="34.8876300">
<ele>216.000000</ele>
<time>2020-09-06T04:30:19.000Z</time>
</trkpt>
<trkpt lat="31.6733900" lon="34.8876800">
<ele>215.000000</ele>
<time>2020-09-06T04:30:41.000Z</time>
</trkpt>
<trkpt lat="31.6740700" lon="34.8879000">
<ele>212.000015</ele>
<time>2020-09-06T04:31:33.000Z</time>
</trkpt>
<trkpt lat="31.6742700" lon="34.8879200">
<ele>211.000000</ele>
<time>2020-09-06T04:31:48.000Z</time>
</trkpt>
<trkpt lat="31.6745000" lon="34.8877600">
<ele>212.000015</ele>
<time>2020-09-06T04:32:09.000Z</time>
</trkpt>
<trkpt lat="31.6746400" lon="34.8875300">
<ele>214.000000</ele>
<time>2020-09-06T04:32:30.000Z</time>
</trkpt>
<trkpt lat="31.6745900" lon="34.8869800">
<ele>213.000000</ele>
<time>2020-09-06T04:33:11.000Z</time>
</trkpt>
<trkpt lat="31.6746800" lon="34.8866300">
<ele>212.000015</ele>
<time>2020-09-06T04:33:33.000Z</time>
</trkpt>
<trkpt lat="31.6750300" lon="34.8864100">
<ele>209.000000</ele>
<time>2020-09-06T04:34:00.000Z</time>
</trkpt>
<trkpt lat="31.6753500" lon="34.8860000">
<ele>206.000000</ele>
<time>2020-09-06T04:34:35.000Z</time>
</trkpt>
<trkpt lat="31.6758300" lon="34.8860300">
<ele>206.000000</ele>
<time>2020-09-06T04:35:11.000Z</time>
</trkpt>
<trkpt lat="31.6762600" lon="34.8861800">
<ele>207.999985</ele>
<time>2020-09-06T04:36:02.000Z</time>
</trkpt>
<trkpt lat="31.6763400" lon="34.8864600">
<ele>210.000000</ele>
<time>2020-09-06T04:36:31.000Z</time>
</trkpt>
<trkpt lat="31.6762000" lon="34.8866200">
<ele>211.000000</ele>
<time>2020-09-06T04:36:52.000Z</time>
</trkpt>
<trkpt lat="31.6760900" lon="34.8865200">
<ele>210.000000</ele>
<time>2020-09-06T04:37:05.000Z</time>
</trkpt>
<trkpt lat="31.6760900" lon="34.8867900">
<ele>212.000015</ele>
<time>2020-09-06T04:37:27.000Z</time>
</trkpt>
<trkpt lat="31.6761700" lon="34.8870100">
<ele>212.000015</ele>
<time>2020-09-06T04:37:46.000Z</time>
</trkpt>
<trkpt lat="31.6760900" lon="34.8872200">
<ele>213.000000</ele>
<time>2020-09-06T04:38:04.000Z</time>
</trkpt>
<trkpt lat="31.6761700" lon="34.8870100">
<ele>212.000015</ele>
<time>2020-09-06T04:38:19.000Z</time>
</trkpt>
<trkpt lat="31.6760900" lon="34.8867900">
<ele>212.000015</ele>
<time>2020-09-06T04:38:34.000Z</time>
</trkpt>
<trkpt lat="31.6760900" lon="34.8865200">
<ele>210.000000</ele>
<time>2020-09-06T04:38:51.000Z</time>
</trkpt>
<trkpt lat="31.6762000" lon="34.8866200">
<ele>211.000000</ele>
<time>2020-09-06T04:39:02.000Z</time>
</trkpt>
<trkpt lat="31.6763400" lon="34.8864600">
<ele>210.000000</ele>
<time>2020-09-06T04:39:16.000Z</time>
</trkpt>
<trkpt lat="31.6762600" lon="34.8861800">
<ele>207.999985</ele>
<time>2020-09-06T04:39:34.000Z</time>
</trkpt>
<trkpt lat="31.6763800" lon="34.8861500">
<ele>207.999985</ele>
<time>2020-09-06T04:39:42.000Z</time>
</trkpt>
<trkpt lat="31.6766900" lon="34.8859900">
<ele>207.000000</ele>
<time>2020-09-06T04:40:06.000Z</time>
</trkpt>
<trkpt lat="31.6767800" lon="34.8859600">
<ele>206.000000</ele>
<time>2020-09-06T04:40:12.000Z</time>
</trkpt>
<trkpt lat="31.6771700" lon="34.8859200">
<ele>203.000000</ele>
<time>2020-09-06T04:40:37.000Z</time>
</trkpt>
<trkpt lat="31.6775200" lon="34.8859300">
<ele>200.000000</ele>
<time>2020-09-06T04:41:01.000Z</time>
</trkpt>
<trkpt lat="31.6778600" lon="34.8858700">
<ele>198.000000</ele>
<time>2020-09-06T04:41:27.000Z</time>
</trkpt>
<trkpt lat="31.6779300" lon="34.8863100">
<ele>199.000000</ele>
<time>2020-09-06T04:41:56.000Z</time>
</trkpt>
<trkpt lat="31.6779200" lon="34.8865900">
<ele>200.000000</ele>
<time>2020-09-06T04:42:15.000Z</time>
</trkpt>
<trkpt lat="31.6779300" lon="34.8867200">
<ele>200.999985</ele>
<time>2020-09-06T04:42:24.000Z</time>
</trkpt>
<trkpt lat="31.6779700" lon="34.8868200">
<ele>200.999985</ele>
<time>2020-09-06T04:42:32.000Z</time>
</trkpt>
<trkpt lat="31.6780100" lon="34.8868800">
<ele>200.000000</ele>
<time>2020-09-06T04:42:37.000Z</time>
</trkpt>
<trkpt lat="31.6780900" lon="34.8869600">
<ele>200.000000</ele>
<time>2020-09-06T04:42:45.000Z</time>
</trkpt>
<trkpt lat="31.6783400" lon="34.8871100">
<ele>198.000000</ele>
<time>2020-09-06T04:43:06.000Z</time>
</trkpt>
<trkpt lat="31.6786100" lon="34.8872400">
<ele>196.000000</ele>
<time>2020-09-06T04:43:24.000Z</time>
</trkpt>
<trkpt lat="31.6789900" lon="34.8873700">
<ele>193.000000</ele>
<time>2020-09-06T04:43:49.000Z</time>
</trkpt>
<trkpt lat="31.6790500" lon="34.8874300">
<ele>192.000000</ele>
<time>2020-09-06T04:43:56.000Z</time>
</trkpt>
<trkpt lat="31.6790900" lon="34.8875000">
<ele>192.000000</ele>
<time>2020-09-06T04:44:01.000Z</time>
</trkpt>
<trkpt lat="31.6791000" lon="34.8875800">
<ele>192.000000</ele>
<time>2020-09-06T04:44:07.000Z</time>
</trkpt>
<trkpt lat="31.6790900" lon="34.8877400">
<ele>191.000000</ele>
<time>2020-09-06T04:44:18.000Z</time>
</trkpt>
<trkpt lat="31.6789200" lon="34.8887900">
<ele>190.000000</ele>
<time>2020-09-06T04:45:24.000Z</time>
</trkpt>
<trkpt lat="31.6789100" lon="34.8889100">
<ele>189.000000</ele>
<time>2020-09-06T04:45:31.000Z</time>
</trkpt>
<trkpt lat="31.6789300" lon="34.8890100">
<ele>188.000000</ele>
<time>2020-09-06T04:45:37.000Z</time>
</trkpt>
<trkpt lat="31.6789700" lon="34.8890700">
<ele>187.000015</ele>
<time>2020-09-06T04:45:41.000Z</time>
</trkpt>
<trkpt lat="31.6791200" lon="34.8892500">
<ele>186.000000</ele>
<time>2020-09-06T04:45:58.000Z</time>
</trkpt>
<trkpt lat="31.6790500" lon="34.8894500">
<ele>186.000000</ele>
<time>2020-09-06T04:46:15.000Z</time>
</trkpt>
<trkpt lat="31.6789200" lon="34.8895200">
<ele>187.000015</ele>
<time>2020-09-06T04:46:29.000Z</time>
</trkpt>
<trkpt lat="31.6786100" lon="34.8897400">
<ele>188.000000</ele>
<time>2020-09-06T04:47:03.000Z</time>
</trkpt>
<trkpt lat="31.6785200" lon="34.8898700">
<ele>188.000000</ele>
<time>2020-09-06T04:47:15.000Z</time>
</trkpt>
<trkpt lat="31.6784800" lon="34.8900300">
<ele>188.000000</ele>
<time>2020-09-06T04:47:26.000Z</time>
</trkpt>
<trkpt lat="31.6784800" lon="34.8900800">
<ele>188.000000</ele>
<time>2020-09-06T04:47:29.000Z</time>
</trkpt>
<trkpt lat="31.6785100" lon="34.8902400">
<ele>188.000000</ele>
<time>2020-09-06T04:47:41.000Z</time>
</trkpt>
<trkpt lat="31.6786200" lon="34.8905100">
<ele>188.000000</ele>
<time>2020-09-06T04:48:01.000Z</time>
</trkpt>
<trkpt lat="31.6786200" lon="34.8907000">
<ele>188.000000</ele>
<time>2020-09-06T04:48:14.000Z</time>
</trkpt>
<trkpt lat="31.6786000" lon="34.8908400">
<ele>188.000000</ele>
<time>2020-09-06T04:48:25.000Z</time>
</trkpt>
<trkpt lat="31.6785400" lon="34.8910000">
<ele>188.000000</ele>
<time>2020-09-06T04:48:38.000Z</time>
</trkpt>
<trkpt lat="31.6785000" lon="34.8910600">
<ele>188.000000</ele>
<time>2020-09-06T04:48:44.000Z</time>
</trkpt>
<trkpt lat="31.6782800" lon="34.8912200">
<ele>188.000000</ele>
<time>2020-09-06T04:49:06.000Z</time>
</trkpt>
<trkpt lat="31.6781800" lon="34.8913300">
<ele>189.000000</ele>
<time>2020-09-06T04:49:18.000Z</time>
</trkpt>
<trkpt lat="31.6780700" lon="34.8915000">
<ele>190.000000</ele>
<time>2020-09-06T04:49:35.000Z</time>
</trkpt>
<trkpt lat="31.6779600" lon="34.8918200">
<ele>191.000000</ele>
<time>2020-09-06T04:50:03.000Z</time>
</trkpt>
<trkpt lat="31.6778100" lon="34.8925200">
<ele>191.000000</ele>
<time>2020-09-06T04:50:57.000Z</time>
</trkpt>
<trkpt lat="31.6776300" lon="34.8931100">
<ele>191.000000</ele>
<time>2020-09-06T04:51:40.000Z</time>
</trkpt>
<trkpt lat="31.6775700" lon="34.8932700">
<ele>191.000000</ele>
<time>2020-09-06T04:51:51.000Z</time>
</trkpt>
<trkpt lat="31.6775400" lon="34.8934700">
<ele>191.000000</ele>
<time>2020-09-06T04:52:05.000Z</time>
</trkpt>
<trkpt lat="31.6775400" lon="34.8935600">
<ele>190.000000</ele>
<time>2020-09-06T04:52:11.000Z</time>
</trkpt>
<trkpt lat="31.6776000" lon="34.8938500">
<ele>190.000000</ele>
<time>2020-09-06T04:52:30.000Z</time>
</trkpt>
<trkpt lat="31.6777300" lon="34.8942400">
<ele>190.000000</ele>
<time>2020-09-06T04:53:01.000Z</time>
</trkpt>
<trkpt lat="31.6777800" lon="34.8944500">
<ele>191.000000</ele>
<time>2020-09-06T04:53:19.000Z</time>
</trkpt>
<trkpt lat="31.6779700" lon="34.8949000">
<ele>192.000000</ele>
<time>2020-09-06T04:53:59.000Z</time>
</trkpt>
<trkpt lat="31.6781100" lon="34.8951500">
<ele>192.000000</ele>
<time>2020-09-06T04:54:21.000Z</time>
</trkpt>
<trkpt lat="31.6782100" lon="34.8952800">
<ele>192.000000</ele>
<time>2020-09-06T04:54:34.000Z</time>
</trkpt>
<trkpt lat="31.6783500" lon="34.8954400">
<ele>192.000000</ele>
<time>2020-09-06T04:54:51.000Z</time>
</trkpt>
<trkpt lat="31.6786300" lon="34.8957700">
<ele>193.999985</ele>
<time>2020-09-06T04:55:26.000Z</time>
</trkpt>
<trkpt lat="31.6788100" lon="34.8961400">
<ele>193.999985</ele>
<time>2020-09-06T04:55:57.000Z</time>
</trkpt>
<trkpt lat="31.6788700" lon="34.8963400">
<ele>193.999985</ele>
<time>2020-09-06T04:56:13.000Z</time>
</trkpt>
<trkpt lat="31.6789300" lon="34.8966700">
<ele>193.999985</ele>
<time>2020-09-06T04:56:40.000Z</time>
</trkpt>
<trkpt lat="31.6789400" lon="34.8967600">
<ele>193.999985</ele>
<time>2020-09-06T04:56:47.000Z</time>
</trkpt>
<trkpt lat="31.6789400" lon="34.8970500">
<ele>195.000000</ele>
<time>2020-09-06T04:57:10.000Z</time>
</trkpt>
<trkpt lat="31.6789100" lon="34.8972100">
<ele>195.000000</ele>
<time>2020-09-06T04:57:23.000Z</time>
</trkpt>
<trkpt lat="31.6789100" lon="34.8973800">
<ele>196.000000</ele>
<time>2020-09-06T04:57:37.000Z</time>
</trkpt>
<trkpt lat="31.6788100" lon="34.8984800">
<ele>199.000000</ele>
<time>2020-09-06T04:59:10.000Z</time>
</trkpt>
<trkpt lat="31.6786800" lon="34.8993100">
<ele>199.000000</ele>
<time>2020-09-06T05:00:07.000Z</time>
</trkpt>
<trkpt lat="31.6786700" lon="34.8997800">
<ele>200.000000</ele>
<time>2020-09-06T05:00:42.000Z</time>
</trkpt>
<trkpt lat="31.6786900" lon="34.8999100">
<ele>200.000000</ele>
<time>2020-09-06T05:00:52.000Z</time>
</trkpt>
<trkpt lat="31.6787100" lon="34.8999800">
<ele>200.000000</ele>
<time>2020-09-06T05:00:58.000Z</time>
</trkpt>
<trkpt lat="31.6787600" lon="34.8999800">
<ele>200.000000</ele>
<time>2020-09-06T05:01:02.000Z</time>
</trkpt>
<trkpt lat="31.6788500" lon="34.8999500">
<ele>200.000000</ele>
<time>2020-09-06T05:01:10.000Z</time>
</trkpt>
<trkpt lat="31.6789500" lon="34.8998500">
<ele>200.000000</ele>
<time>2020-09-06T05:01:23.000Z</time>
</trkpt>
<trkpt lat="31.6787900" lon="34.9004200">
<ele>202.000000</ele>
<time>2020-09-06T05:02:15.000Z</time>
</trkpt>
<trkpt lat="31.6787900" lon="34.9008400">
<ele>203.000000</ele>
<time>2020-09-06T05:02:49.000Z</time>
</trkpt>
<trkpt lat="31.6787800" lon="34.9009200">
<ele>204.000000</ele>
<time>2020-09-06T05:02:55.000Z</time>
</trkpt>
<trkpt lat="31.6787400" lon="34.9010300">
<ele>204.000000</ele>
<time>2020-09-06T05:03:04.000Z</time>
</trkpt>
<trkpt lat="31.6787000" lon="34.9010900">
<ele>205.000015</ele>
<time>2020-09-06T05:03:09.000Z</time>
</trkpt>
<trkpt lat="31.6784700" lon="34.9013100">
<ele>204.000000</ele>
<time>2020-09-06T05:03:35.000Z</time>
</trkpt>
<trkpt lat="31.6780900" lon="34.9018600">
<ele>206.000000</ele>
<time>2020-09-06T05:04:31.000Z</time>
</trkpt>
<trkpt lat="31.6778600" lon="34.9021200">
<ele>206.000000</ele>
<time>2020-09-06T05:05:01.000Z</time>
</trkpt>
<trkpt lat="31.6776900" lon="34.9023700">
<ele>205.000015</ele>
<time>2020-09-06T05:05:23.000Z</time>
</trkpt>
<trkpt lat="31.6775600" lon="34.9024900">
<ele>205.000015</ele>
<time>2020-09-06T05:05:36.000Z</time>
</trkpt>
<trkpt lat="31.6772500" lon="34.9026900">
<ele>206.000000</ele>
<time>2020-09-06T05:06:05.000Z</time>
</trkpt>
<trkpt lat="31.6773000" lon="34.9030200">
<ele>207.000000</ele>
<time>2020-09-06T05:06:36.000Z</time>
</trkpt>
<trkpt lat="31.6773300" lon="34.9031000">
<ele>207.999985</ele>
<time>2020-09-06T05:06:45.000Z</time>
</trkpt>
<trkpt lat="31.6776200" lon="34.9040200">
<ele>215.000000</ele>
<time>2020-09-06T05:08:24.000Z</time>
</trkpt>
<trkpt lat="31.6779800" lon="34.9048200">
<ele>217.000000</ele>
<time>2020-09-06T05:09:47.000Z</time>
</trkpt>
<trkpt lat="31.6782300" lon="34.9056000">
<ele>219.000015</ele>
<time>2020-09-06T05:10:52.000Z</time>
</trkpt>
<trkpt lat="31.6785200" lon="34.9060900">
<ele>220.000000</ele>
<time>2020-09-06T05:11:43.000Z</time>
</trkpt>
<trkpt lat="31.6786900" lon="34.9065200">
<ele>223.000000</ele>
<time>2020-09-06T05:12:29.000Z</time>
</trkpt>
<trkpt lat="31.6787400" lon="34.9077900">
<ele>228.000000</ele>
<time>2020-09-06T05:14:21.000Z</time>
</trkpt>
<trkpt lat="31.6787500" lon="34.9079500">
<ele>228.000000</ele>
<time>2020-09-06T05:14:34.000Z</time>
</trkpt>
<trkpt lat="31.6781200" lon="34.9091200">
<ele>231.000000</ele>
<time>2020-09-06T05:16:15.000Z</time>
</trkpt>
<trkpt lat="31.6782600" lon="34.9092300">
<ele>228.000000</ele>
<time>2020-09-06T05:16:28.000Z</time>
</trkpt>
<trkpt lat="31.6784600" lon="34.9091700">
<ele>227.000000</ele>
<time>2020-09-06T05:16:44.000Z</time>
</trkpt>
<trkpt lat="31.6787900" lon="34.9091900">
<ele>228.000000</ele>
<time>2020-09-06T05:17:16.000Z</time>
</trkpt>
<trkpt lat="31.6795000" lon="34.9096300">
<ele>234.000000</ele>
<time>2020-09-06T05:18:49.000Z</time>
</trkpt>
<trkpt lat="31.6796600" lon="34.9098100">
<ele>235.000000</ele>
<time>2020-09-06T05:19:15.000Z</time>
</trkpt>
<trkpt lat="31.6801700" lon="34.9103700">
<ele>242.000000</ele>
<time>2020-09-06T05:20:43.000Z</time>
</trkpt>
<trkpt lat="31.6806800" lon="34.9109400">
<ele>249.000000</ele>
<time>2020-09-06T05:22:15.000Z</time>
</trkpt>
<trkpt lat="31.6807800" lon="34.9109900">
<ele>250.000000</ele>
<time>2020-09-06T05:22:26.000Z</time>
</trkpt>
<trkpt lat="31.6809200" lon="34.9109700">
<ele>250.999985</ele>
<time>2020-09-06T05:22:39.000Z</time>
</trkpt>
<trkpt lat="31.6809600" lon="34.9109000">
<ele>250.000000</ele>
<time>2020-09-06T05:22:46.000Z</time>
</trkpt>
<trkpt lat="31.6810000" lon="34.9107200">
<ele>250.000000</ele>
<time>2020-09-06T05:23:01.000Z</time>
</trkpt>
<trkpt lat="31.6809400" lon="34.9104700">
<ele>248.000000</ele>
<time>2020-09-06T05:23:20.000Z</time>
</trkpt>
<trkpt lat="31.6808700" lon="34.9102000">
<ele>247.000000</ele>
<time>2020-09-06T05:23:40.000Z</time>
</trkpt>
<trkpt lat="31.6810600" lon="34.9098400">
<ele>248.000000</ele>
<time>2020-09-06T05:24:08.000Z</time>
</trkpt>
<trkpt lat="31.6813400" lon="34.9097400">
<ele>250.000000</ele>
<time>2020-09-06T05:24:40.000Z</time>
</trkpt>
<trkpt lat="31.6817100" lon="34.9097000">
<ele>253.000000</ele>
<time>2020-09-06T05:25:28.000Z</time>
</trkpt>
<trkpt lat="31.6818400" lon="34.9100100">
<ele>256.000000</ele>
<time>2020-09-06T05:26:06.000Z</time>
</trkpt>
<trkpt lat="31.6818000" lon="34.9101800">
<ele>257.000000</ele>
<time>2020-09-06T05:26:21.000Z</time>
</trkpt>
<trkpt lat="31.6815200" lon="34.9115000">
<ele>259.000000</ele>
<time>2020-09-06T05:28:07.000Z</time>
</trkpt>
<trkpt lat="31.6807800" lon="34.9118800">
<ele>259.000000</ele>
<time>2020-09-06T05:29:12.000Z</time>
</trkpt>
<trkpt lat="31.6802200" lon="34.9121900">
<ele>261.000000</ele>
<time>2020-09-06T05:30:08.000Z</time>
</trkpt>
<trkpt lat="31.6800800" lon="34.9124200">
<ele>262.000000</ele>
<time>2020-09-06T05:30:33.000Z</time>
</trkpt>
<trkpt lat="31.6801400" lon="34.9129300">
<ele>261.000000</ele>
<time>2020-09-06T05:31:12.000Z</time>
</trkpt>
<trkpt lat="31.6799700" lon="34.9134700">
<ele>261.000000</ele>
<time>2020-09-06T05:31:51.000Z</time>
</trkpt>
<trkpt lat="31.6799300" lon="34.9135300">
<ele>261.000000</ele>
<time>2020-09-06T05:31:56.000Z</time>
</trkpt>
<trkpt lat="31.6797000" lon="34.9140400">
<ele>262.000000</ele>
<time>2020-09-06T05:32:44.000Z</time>
</trkpt>
<trkpt lat="31.6794700" lon="34.9143900">
<ele>264.000000</ele>
<time>2020-09-06T05:33:22.000Z</time>
</trkpt>
<trkpt lat="31.6788500" lon="34.9151400">
<ele>266.000000</ele>
<time>2020-09-06T05:34:50.000Z</time>
</trkpt>
<trkpt lat="31.6786100" lon="34.9153900">
<ele>266.000000</ele>
<time>2020-09-06T05:35:15.000Z</time>
</trkpt>
<trkpt lat="31.6785400" lon="34.9155000">
<ele>266.000000</ele>
<time>2020-09-06T05:35:24.000Z</time>
</trkpt>
<trkpt lat="31.6783100" lon="34.9160000">
<ele>265.000000</ele>
<time>2020-09-06T05:36:00.000Z</time>
</trkpt>
<trkpt lat="31.6779300" lon="34.9170000">
<ele>262.000000</ele>
<time>2020-09-06T05:37:14.000Z</time>
</trkpt>
<trkpt lat="31.6776800" lon="34.9176400">
<ele>264.000000</ele>
<time>2020-09-06T05:38:09.000Z</time>
</trkpt>
<trkpt lat="31.6775900" lon="34.9179300">
<ele>264.000000</ele>
<time>2020-09-06T05:38:32.000Z</time>
</trkpt>
<trkpt lat="31.6775000" lon="34.9183500">
<ele>265.000000</ele>
<time>2020-09-06T05:39:05.000Z</time>
</trkpt>
<trkpt lat="31.6773300" lon="34.9188600">
<ele>268.000000</ele>
<time>2020-09-06T05:39:59.000Z</time>
</trkpt>
<trkpt lat="31.6770500" lon="34.9195100">
<ele>272.000000</ele>
<time>2020-09-06T05:41:17.000Z</time>
</trkpt>
<trkpt lat="31.6768700" lon="34.9199500">
<ele>276.000000</ele>
<time>2020-09-06T05:42:11.000Z</time>
</trkpt>
<trkpt lat="31.6767900" lon="34.9203500">
<ele>279.000000</ele>
<time>2020-09-06T05:42:52.000Z</time>
</trkpt>
<trkpt lat="31.6767200" lon="34.9206300">
<ele>281.000000</ele>
<time>2020-09-06T05:43:19.000Z</time>
</trkpt>
<trkpt lat="31.6765200" lon="34.9210000">
<ele>282.000000</ele>
<time>2020-09-06T05:44:00.000Z</time>
</trkpt>
<trkpt lat="31.6764600" lon="34.9212000">
<ele>282.000000</ele>
<time>2020-09-06T05:44:16.000Z</time>
</trkpt>
<trkpt lat="31.6763300" lon="34.9214800">
<ele>283.000000</ele>
<time>2020-09-06T05:44:39.000Z</time>
</trkpt>
<trkpt lat="31.6761700" lon="34.9217700">
<ele>283.000000</ele>
<time>2020-09-06T05:45:05.000Z</time>
</trkpt>
<trkpt lat="31.6760600" lon="34.9219100">
<ele>284.000000</ele>
<time>2020-09-06T05:45:22.000Z</time>
</trkpt>
<trkpt lat="31.6758600" lon="34.9220800">
<ele>285.000000</ele>
<time>2020-09-06T05:45:52.000Z</time>
</trkpt>
<trkpt lat="31.6756000" lon="34.9223700">
<ele>288.000000</ele>
<time>2020-09-06T05:46:36.000Z</time>
</trkpt>
<trkpt lat="31.6755400" lon="34.9224500">
<ele>289.000000</ele>
<time>2020-09-06T05:46:47.000Z</time>
</trkpt>
<trkpt lat="31.6754200" lon="34.9227000">
<ele>291.000000</ele>
<time>2020-09-06T05:47:23.000Z</time>
</trkpt>
<trkpt lat="31.6750100" lon="34.9232100">
<ele>299.000000</ele>
<time>2020-09-06T05:48:53.000Z</time>
</trkpt>
<trkpt lat="31.6749500" lon="34.9232600">
<ele>300.000000</ele>
<time>2020-09-06T05:49:02.000Z</time>
</trkpt>
<trkpt lat="31.6748700" lon="34.9232700">
<ele>301.000000</ele>
<time>2020-09-06T05:49:12.000Z</time>
</trkpt>
<trkpt lat="31.6747100" lon="34.9232200">
<ele>301.000000</ele>
<time>2020-09-06T05:49:32.000Z</time>
</trkpt>
<trkpt lat="31.6745900" lon="34.9232000">
<ele>301.000000</ele>
<time>2020-09-06T05:49:47.000Z</time>
</trkpt>
<trkpt lat="31.6744600" lon="34.9232300">
<ele>302.000000</ele>
<time>2020-09-06T05:50:03.000Z</time>
</trkpt>
<trkpt lat="31.6742900" lon="34.9233400">
<ele>305.000000</ele>
<time>2020-09-06T05:50:27.000Z</time>
</trkpt>
<trkpt lat="31.6742700" lon="34.9233400">
<ele>305.000000</ele>
<time>2020-09-06T05:50:30.000Z</time>
</trkpt>
<trkpt lat="31.6740100" lon="34.9234800">
<ele>308.000000</ele>
<time>2020-09-06T05:51:07.000Z</time>
</trkpt>
<trkpt lat="31.6735700" lon="34.9234600">
<ele>311.000000</ele>
<time>2020-09-06T05:52:04.000Z</time>
</trkpt>
<trkpt lat="31.6734100" lon="34.9235200">
<ele>312.999969</ele>
<time>2020-09-06T05:52:28.000Z</time>
</trkpt>
<trkpt lat="31.6733400" lon="34.9236400">
<ele>315.000000</ele>
<time>2020-09-06T05:52:49.000Z</time>
</trkpt>
<trkpt lat="31.6732400" lon="34.9238600">
<ele>318.000000</ele>
<time>2020-09-06T05:53:26.000Z</time>
</trkpt>
<trkpt lat="31.6731400" lon="34.9244300">
<ele>326.999969</ele>
<time>2020-09-06T05:54:43.000Z</time>
</trkpt>
<trkpt lat="31.6735700" lon="34.9244800">
<ele>325.000000</ele>
<time>2020-09-06T05:55:17.000Z</time>
</trkpt>
<trkpt lat="31.6737400" lon="34.9245600">
<ele>325.000000</ele>
<time>2020-09-06T05:55:32.000Z</time>
</trkpt>
<trkpt lat="31.6738200" lon="34.9246400">
<ele>325.000000</ele>
<time>2020-09-06T05:55:41.000Z</time>
</trkpt>
<trkpt lat="31.6738800" lon="34.9247500">
<ele>325.000000</ele>
<time>2020-09-06T05:55:55.000Z</time>
</trkpt>
<trkpt lat="31.6739100" lon="34.9248700">
<ele>326.000000</ele>
<time>2020-09-06T05:56:09.000Z</time>
</trkpt>
<trkpt lat="31.6739700" lon="34.9253800">
<ele>332.000000</ele>
<time>2020-09-06T05:57:06.000Z</time>
</trkpt>
<trkpt lat="31.6740000" lon="34.9254500">
<ele>332.000000</ele>
<time>2020-09-06T05:57:14.000Z</time>
</trkpt>
<trkpt lat="31.6740900" lon="34.9255900">
<ele>332.000000</ele>
<time>2020-09-06T05:57:33.000Z</time>
</trkpt>
<trkpt lat="31.6742000" lon="34.9257100">
<ele>332.000000</ele>
<time>2020-09-06T05:57:50.000Z</time>
</trkpt>
<trkpt lat="31.6744100" lon="34.9259900">
<ele>335.000031</ele>
<time>2020-09-06T05:58:27.000Z</time>
</trkpt>
<trkpt lat="31.6746900" lon="34.9262600">
<ele>337.000000</ele>
<time>2020-09-06T05:59:05.000Z</time>
</trkpt>
<trkpt lat="31.6748900" lon="34.9263600">
<ele>337.000000</ele>
<time>2020-09-06T05:59:22.000Z</time>
</trkpt>
<trkpt lat="31.6751100" lon="34.9263900">
<ele>336.000000</ele>
<time>2020-09-06T05:59:39.000Z</time>
</trkpt>
<trkpt lat="31.6754300" lon="34.9264700">
<ele>336.000000</ele>
<time>2020-09-06T06:00:05.000Z</time>
</trkpt>
<trkpt lat="31.6755000" lon="34.9264800">
<ele>336.000000</ele>
<time>2020-09-06T06:00:10.000Z</time>
</trkpt>
<trkpt lat="31.6756800" lon="34.9265300">
<ele>336.000000</ele>
<time>2020-09-06T06:00:24.000Z</time>
</trkpt>
<trkpt lat="31.6758400" lon="34.9266000">
<ele>336.000000</ele>
<time>2020-09-06T06:00:38.000Z</time>
</trkpt>
<trkpt lat="31.6760000" lon="34.9267100">
<ele>335.000031</ele>
<time>2020-09-06T06:00:52.000Z</time>
</trkpt>
<trkpt lat="31.6761600" lon="34.9268900">
<ele>335.000031</ele>
<time>2020-09-06T06:01:09.000Z</time>
</trkpt>
<trkpt lat="31.6762500" lon="34.9270300">
<ele>335.000031</ele>
<time>2020-09-06T06:01:20.000Z</time>
</trkpt>
<trkpt lat="31.6766200" lon="34.9272000">
<ele>333.000000</ele>
<time>2020-09-06T06:01:49.000Z</time>
</trkpt>
<trkpt lat="31.6768600" lon="34.9273300">
<ele>332.000000</ele>
<time>2020-09-06T06:02:08.000Z</time>
</trkpt>
<trkpt lat="31.6770900" lon="34.9273900">
<ele>332.000000</ele>
<time>2020-09-06T06:02:25.000Z</time>
</trkpt>
<trkpt lat="31.6777200" lon="34.9273000">
<ele>329.000000</ele>
<time>2020-09-06T06:03:16.000Z</time>
</trkpt>
<trkpt lat="31.6776700" lon="34.9275600">
<ele>332.000000</ele>
<time>2020-09-06T06:03:44.000Z</time>
</trkpt>
<trkpt lat="31.6776200" lon="34.9278900">
<ele>333.000000</ele>
<time>2020-09-06T06:04:19.000Z</time>
</trkpt>
<trkpt lat="31.6776200" lon="34.9282200">
<ele>335.000031</ele>
<time>2020-09-06T06:04:48.000Z</time>
</trkpt>
<trkpt lat="31.6776600" lon="34.9289600">
<ele>331.000000</ele>
<time>2020-09-06T06:05:33.000Z</time>
</trkpt>
<trkpt lat="31.6775700" lon="34.9298500">
<ele>321.000031</ele>
<time>2020-09-06T06:06:53.000Z</time>
</trkpt>
<trkpt lat="31.6776100" lon="34.9301700">
<ele>319.000000</ele>
<time>2020-09-06T06:07:18.000Z</time>
</trkpt>
<trkpt lat="31.6776000" lon="34.9306100">
<ele>316.000000</ele>
<time>2020-09-06T06:07:48.000Z</time>
</trkpt>
<trkpt lat="31.6774900" lon="34.9306100">
<ele>316.000000</ele>
<time>2020-09-06T06:07:57.000Z</time>
</trkpt>
<trkpt lat="31.6774300" lon="34.9305600">
<ele>316.000000</ele>
<time>2020-09-06T06:08:03.000Z</time>
</trkpt>
</trkseg>
</trk>
</gpx>
